Index of /mirror/wikimedia.org/dumps/dewiki/20210901

[ICO]NameLast modifiedSize

[PARENTDIR]Parent Directory  -
[ARC]dewiki-20210901-abstract.xml.gz2021-09-03 02:09 334M
[ARC]dewiki-20210901-abstract1.xml.gz2021-09-03 01:42 83M
[ARC]dewiki-20210901-abstract2.xml.gz2021-09-03 00:47 44M
[ARC]dewiki-20210901-abstract3.xml.gz2021-09-03 00:51 44M
[ARC]dewiki-20210901-abstract4.xml.gz2021-09-03 01:50 49M
[ARC]dewiki-20210901-abstract5.xml.gz2021-09-03 01:57 53M
[ARC]dewiki-20210901-abstract6.xml.gz2021-09-03 02:09 61M
[ARC]dewiki-20210901-all-titles-in-ns0.gz2021-09-02 21:15 23M
[ARC]dewiki-20210901-all-titles.gz2021-09-02 21:15 42M
[ARC]dewiki-20210901-babel.sql.gz2021-09-01 20:11 13K
[ARC]dewiki-20210901-category.sql.gz2021-09-01 18:48 5.7M
[ARC]dewiki-20210901-categorylinks.sql.gz2021-09-01 18:40 336M
[ARC]dewiki-20210901-change_tag.sql.gz2021-09-01 18:53 115M
[ARC]dewiki-20210901-change_tag_def.sql.gz2021-09-01 18:54 1.6K
[ARC]dewiki-20210901-externallinks.sql.gz2021-09-01 18:46 959M
[ARC]dewiki-20210901-flaggedimages.sql.gz2021-09-01 19:26 15G
[ARC]dewiki-20210901-flaggedpage_config.sql.gz2021-09-01 19:36 826
[ARC]dewiki-20210901-flaggedpage_pending.sql.gz2021-09-01 19:36 171K
[ARC]dewiki-20210901-flaggedpages.sql.gz2021-09-01 18:54 35M
[ARC]dewiki-20210901-flaggedrevs.sql.gz2021-09-01 18:59 1.4G
[ARC]dewiki-20210901-flaggedrevs_promote.sql.gz2021-09-01 19:36 27M
[ARC]dewiki-20210901-flaggedrevs_statistics.sql.gz2021-09-01 19:37 7.4M
[ARC]dewiki-20210901-flaggedrevs_tracking.sql.gz2021-09-01 19:37 290K
[ARC]dewiki-20210901-flaggedtemplates.sql.gz2021-09-01 20:06 7.6G
[ARC]dewiki-20210901-geo_tags.sql.gz2021-09-01 18:52 41M
[ARC]dewiki-20210901-image.sql.gz2021-09-01 18:33 15M
[ARC]dewiki-20210901-imagelinks.sql.gz2021-09-01 18:41 113M
[ARC]dewiki-20210901-iwlinks.sql.gz2021-09-01 18:52 35M
[ARC]dewiki-20210901-langlinks.sql.gz2021-09-01 18:47 242M
[   ]dewiki-20210901-md5sums.json2021-09-04 13:50 39K
[TXT]dewiki-20210901-md5sums.txt2021-09-04 13:50 37K
[ARC]dewiki-20210901-page.sql.gz2021-09-01 18:49 269M
[ARC]dewiki-20210901-page_props.sql.gz2021-09-01 18:51 78M
[ARC]dewiki-20210901-page_restrictions.sql.gz2021-09-01 18:50 1.6M
[ARC]dewiki-20210901-pagelinks.sql.gz2021-09-01 18:38 1.0G
[ARC]dewiki-20210901-pages-articles-multistream-index.txt.bz22021-09-02 03:53 50M
[ARC]dewiki-20210901-pages-articles-multistream-index1.txt-p1p297012.bz22021-09-02 03:22 1.3M
[ARC]dewiki-20210901-pages-articles-multistream-index2.txt-p297013p1262093.bz22021-09-02 03:25 3.7M
[ARC]dewiki-20210901-pages-articles-multistream-index3.txt-p1262094p2762093.bz22021-09-02 03:25 5.0M
[ARC]dewiki-20210901-pages-articles-multistream-index3.txt-p2762094p3376257.bz22021-09-02 03:18 2.1M
[ARC]dewiki-20210901-pages-articles-multistream-index4.txt-p3376258p4876257.bz22021-09-02 03:24 5.3M
[ARC]dewiki-20210901-pages-articles-multistream-index4.txt-p4876258p6115464.bz22021-09-02 03:23 4.6M
[ARC]dewiki-20210901-pages-articles-multistream-index5.txt-p6115465p7615464.bz22021-09-02 03:42 6.7M
[ARC]dewiki-20210901-pages-articles-multistream-index5.txt-p7615465p9115464.bz22021-09-02 03:44 7.1M
[ARC]dewiki-20210901-pages-articles-multistream-index5.txt-p9115465p9261244.bz22021-09-02 03:26 364K
[ARC]dewiki-20210901-pages-articles-multistream-index6.txt-p9261245p10761244.bz22021-09-02 03:45 7.5M
[ARC]dewiki-20210901-pages-articles-multistream-index6.txt-p10761245p11906021.bz22021-09-02 03:42 6.2M
[ARC]dewiki-20210901-pages-articles-multistream.xml.bz22021-09-02 03:52 5.9G
[ARC]dewiki-20210901-pages-articles-multistream1.xml-p1p297012.bz22021-09-02 03:22 513M
[ARC]dewiki-20210901-pages-articles-multistream2.xml-p297013p1262093.bz22021-09-02 03:25 655M
[ARC]dewiki-20210901-pages-articles-multistream3.xml-p1262094p2762093.bz22021-09-02 03:25 611M
[ARC]dewiki-20210901-pages-articles-multistream3.xml-p2762094p3376257.bz22021-09-02 03:18 245M
[ARC]dewiki-20210901-pages-articles-multistream4.xml-p3376258p4876257.bz22021-09-02 03:24 602M
[ARC]dewiki-20210901-pages-articles-multistream4.xml-p4876258p6115464.bz22021-09-02 03:23 497M
[ARC]dewiki-20210901-pages-articles-multistream5.xml-p6115465p7615464.bz22021-09-02 03:42 670M
[ARC]dewiki-20210901-pages-articles-multistream5.xml-p7615465p9115464.bz22021-09-02 03:44 771M
[ARC]dewiki-20210901-pages-articles-multistream5.xml-p9115465p9261244.bz22021-09-02 03:26 35M
[ARC]dewiki-20210901-pages-articles-multistream6.xml-p9261245p10761244.bz22021-09-02 03:45 818M
[ARC]dewiki-20210901-pages-articles-multistream6.xml-p10761245p11906021.bz22021-09-02 03:42 626M
[ARC]dewiki-20210901-pages-articles.xml.bz22021-09-01 22:43 5.7G
[ARC]dewiki-20210901-pages-articles1.xml-p1p297012.bz22021-09-01 21:48 508M
[ARC]dewiki-20210901-pages-articles2.xml-p297013p1262093.bz22021-09-01 21:51 639M
[ARC]dewiki-20210901-pages-articles3.xml-p1262094p2762093.bz22021-09-01 21:50 585M
[ARC]dewiki-20210901-pages-articles3.xml-p2762094p3376257.bz22021-09-01 21:42 234M
[ARC]dewiki-20210901-pages-articles4.xml-p3376258p4876257.bz22021-09-01 21:50 574M
[ARC]dewiki-20210901-pages-articles4.xml-p4876258p6115464.bz22021-09-01 21:48 474M
[ARC]dewiki-20210901-pages-articles5.xml-p6115465p7615464.bz22021-09-01 22:05 636M
[ARC]dewiki-20210901-pages-articles5.xml-p7615465p9115464.bz22021-09-01 22:07 738M
[ARC]dewiki-20210901-pages-articles5.xml-p9115465p9261244.bz22021-09-01 21:52 34M
[ARC]dewiki-20210901-pages-articles6.xml-p9261245p10761244.bz22021-09-01 22:08 782M
[ARC]dewiki-20210901-pages-articles6.xml-p10761245p11906021.bz22021-09-01 22:06 594M
[ARC]dewiki-20210901-pages-logging.xml.gz2021-09-03 02:21 1.3G
[ARC]dewiki-20210901-pages-logging1.xml.gz2021-09-03 02:20 346M
[ARC]dewiki-20210901-pages-logging2.xml.gz2021-09-03 02:17 221M
[ARC]dewiki-20210901-pages-logging3.xml.gz2021-09-03 02:17 228M
[ARC]dewiki-20210901-pages-logging4.xml.gz2021-09-03 02:15 136M
[ARC]dewiki-20210901-pages-logging5.xml.gz2021-09-03 02:15 143M
[ARC]dewiki-20210901-pages-logging6.xml.gz2021-09-03 02:18 274M
[ARC]dewiki-20210901-pages-meta-current.xml.bz22021-09-02 11:43 8.5G
[ARC]dewiki-20210901-pages-meta-current1.xml-p1p297012.bz22021-09-02 10:17 610M
[ARC]dewiki-20210901-pages-meta-current2.xml-p297013p1262093.bz22021-09-02 10:23 902M
[ARC]dewiki-20210901-pages-meta-current3.xml-p1262094p2762093.bz22021-09-02 10:24 914M
[ARC]dewiki-20210901-pages-meta-current3.xml-p2762094p3376257.bz22021-09-02 10:14 377M
[ARC]dewiki-20210901-pages-meta-current4.xml-p3376258p4876257.bz22021-09-02 10:24 939M
[ARC]dewiki-20210901-pages-meta-current4.xml-p4876258p6115464.bz22021-09-02 10:22 776M
[ARC]dewiki-20210901-pages-meta-current5.xml-p6115465p7615464.bz22021-09-02 10:46 1.0G
[ARC]dewiki-20210901-pages-meta-current5.xml-p7615465p9115464.bz22021-09-02 10:50 1.1G
[ARC]dewiki-20210901-pages-meta-current5.xml-p9115465p9261244.bz22021-09-02 10:26 66M
[ARC]dewiki-20210901-pages-meta-current6.xml-p9261245p10761244.bz22021-09-02 10:51 1.1G
[ARC]dewiki-20210901-pages-meta-current6.xml-p10761245p11906022.bz22021-09-02 10:45 846M
[CMP]dewiki-20210901-pages-meta-history1.xml-p1p1598.7z2021-09-04 05:40 181M
[ARC]dewiki-20210901-pages-meta-history1.xml-p1p1598.bz22021-09-03 03:48 2.2G
[CMP]dewiki-20210901-pages-meta-history1.xml-p1599p3235.7z2021-09-04 05:43 180M
[ARC]dewiki-20210901-pages-meta-history1.xml-p1599p3235.bz22021-09-03 03:51 2.1G
[CMP]dewiki-20210901-pages-meta-history1.xml-p3236p5184.7z2021-09-04 05:41 182M
[ARC]dewiki-20210901-pages-meta-history1.xml-p3236p5184.bz22021-09-03 03:51 2.0G
[CMP]dewiki-20210901-pages-meta-history1.xml-p5185p6214.7z2021-09-04 05:43 162M
[ARC]dewiki-20210901-pages-meta-history1.xml-p5185p6214.bz22021-09-03 03:50 1.9G
[CMP]dewiki-20210901-pages-meta-history1.xml-p6215p9226.7z2021-09-04 05:41 191M
[ARC]dewiki-20210901-pages-meta-history1.xml-p6215p9226.bz22021-09-03 03:53 1.9G
[CMP]dewiki-20210901-pages-meta-history1.xml-p9227p12066.7z2021-09-04 05:42 193M
[ARC]dewiki-20210901-pages-meta-history1.xml-p9227p12066.bz22021-09-03 03:54 2.1G
[CMP]dewiki-20210901-pages-meta-history1.xml-p12067p15215.7z2021-09-04 06:00 198M
[ARC]dewiki-20210901-pages-meta-history1.xml-p12067p15215.bz22021-09-03 04:41 1.9G
[CMP]dewiki-20210901-pages-meta-history1.xml-p15216p18322.7z2021-09-04 05:59 199M
[ARC]dewiki-20210901-pages-meta-history1.xml-p15216p18322.bz22021-09-03 04:42 1.9G
[CMP]dewiki-20210901-pages-meta-history1.xml-p18323p22889.7z2021-09-04 05:59 209M
[ARC]dewiki-20210901-pages-meta-history1.xml-p18323p22889.bz22021-09-03 04:41 1.8G
[CMP]dewiki-20210901-pages-meta-history1.xml-p22890p29827.7z2021-09-04 05:59 231M
[ARC]dewiki-20210901-pages-meta-history1.xml-p22890p29827.bz22021-09-03 04:37 1.7G
[CMP]dewiki-20210901-pages-meta-history1.xml-p29828p34615.7z2021-09-04 05:59 223M
[ARC]dewiki-20210901-pages-meta-history1.xml-p29828p34615.bz22021-09-03 04:43 2.4G
[CMP]dewiki-20210901-pages-meta-history1.xml-p34616p42626.7z2021-09-04 06:01 239M
[ARC]dewiki-20210901-pages-meta-history1.xml-p34616p42626.bz22021-09-03 04:37 1.7G
[CMP]dewiki-20210901-pages-meta-history1.xml-p42627p50748.7z2021-09-04 06:22 231M
[ARC]dewiki-20210901-pages-meta-history1.xml-p42627p50748.bz22021-09-03 05:30 1.8G
[CMP]dewiki-20210901-pages-meta-history1.xml-p50749p59095.7z2021-09-04 06:25 241M
[ARC]dewiki-20210901-pages-meta-history1.xml-p50749p59095.bz22021-09-03 05:28 1.9G
[CMP]dewiki-20210901-pages-meta-history1.xml-p59096p70665.7z2021-09-04 06:21 246M
[ARC]dewiki-20210901-pages-meta-history1.xml-p59096p70665.bz22021-09-03 05:26 1.9G
[CMP]dewiki-20210901-pages-meta-history1.xml-p70666p80296.7z2021-09-04 06:21 248M
[ARC]dewiki-20210901-pages-meta-history1.xml-p70666p80296.bz22021-09-03 05:27 1.7G
[CMP]dewiki-20210901-pages-meta-history1.xml-p80297p93674.7z2021-09-04 06:18 251M
[ARC]dewiki-20210901-pages-meta-history1.xml-p80297p93674.bz22021-09-03 05:25 1.5G
[CMP]dewiki-20210901-pages-meta-history1.xml-p93675p106386.7z2021-09-04 06:25 262M
[ARC]dewiki-20210901-pages-meta-history1.xml-p93675p106386.bz22021-09-03 05:25 1.7G
[CMP]dewiki-20210901-pages-meta-history1.xml-p106387p121624.7z2021-09-04 06:42 259M
[ARC]dewiki-20210901-pages-meta-history1.xml-p106387p121624.bz22021-09-03 06:12 1.6G
[CMP]dewiki-20210901-pages-meta-history1.xml-p121625p136260.7z2021-09-04 06:44 255M
[ARC]dewiki-20210901-pages-meta-history1.xml-p121625p136260.bz22021-09-03 06:13 1.6G
[CMP]dewiki-20210901-pages-meta-history1.xml-p136261p152353.7z2021-09-04 06:43 252M
[ARC]dewiki-20210901-pages-meta-history1.xml-p136261p152353.bz22021-09-03 06:09 1.4G
[CMP]dewiki-20210901-pages-meta-history1.xml-p152354p169188.7z2021-09-04 06:43 252M
[ARC]dewiki-20210901-pages-meta-history1.xml-p152354p169188.bz22021-09-03 06:09 1.4G
[CMP]dewiki-20210901-pages-meta-history1.xml-p169189p187660.7z2021-09-04 06:43 260M
[ARC]dewiki-20210901-pages-meta-history1.xml-p169189p187660.bz22021-09-03 06:09 1.6G
[CMP]dewiki-20210901-pages-meta-history1.xml-p187661p207812.7z2021-09-04 06:43 268M
[ARC]dewiki-20210901-pages-meta-history1.xml-p187661p207812.bz22021-09-03 06:10 1.6G
[CMP]dewiki-20210901-pages-meta-history1.xml-p207813p229473.7z2021-09-04 07:03 249M
[ARC]dewiki-20210901-pages-meta-history1.xml-p207813p229473.bz22021-09-03 06:48 1.3G
[CMP]dewiki-20210901-pages-meta-history1.xml-p229474p254168.7z2021-09-04 07:00 242M
[ARC]dewiki-20210901-pages-meta-history1.xml-p229474p254168.bz22021-09-03 06:43 1.1G
[CMP]dewiki-20210901-pages-meta-history1.xml-p254169p276974.7z2021-09-04 07:01 251M
[ARC]dewiki-20210901-pages-meta-history1.xml-p254169p276974.bz22021-09-03 06:45 1.3G
[CMP]dewiki-20210901-pages-meta-history1.xml-p276975p297012.7z2021-09-04 07:00 221M
[ARC]dewiki-20210901-pages-meta-history1.xml-p276975p297012.bz22021-09-03 06:43 1.3G
[CMP]dewiki-20210901-pages-meta-history2.xml-p297013p323551.7z2021-09-04 07:02 263M
[ARC]dewiki-20210901-pages-meta-history2.xml-p297013p323551.bz22021-09-03 06:42 1.4G
[CMP]dewiki-20210901-pages-meta-history2.xml-p323552p350617.7z2021-09-04 06:59 242M
[ARC]dewiki-20210901-pages-meta-history2.xml-p323552p350617.bz22021-09-03 06:43 1.1G
[CMP]dewiki-20210901-pages-meta-history2.xml-p350618p380725.7z2021-09-04 07:14 251M
[ARC]dewiki-20210901-pages-meta-history2.xml-p350618p380725.bz22021-09-03 07:21 1.2G
[CMP]dewiki-20210901-pages-meta-history2.xml-p380726p413119.7z2021-09-04 07:13 245M
[ARC]dewiki-20210901-pages-meta-history2.xml-p380726p413119.bz22021-09-03 07:18 1.1G
[CMP]dewiki-20210901-pages-meta-history2.xml-p413120p445557.7z2021-09-04 07:15 253M
[ARC]dewiki-20210901-pages-meta-history2.xml-p413120p445557.bz22021-09-03 07:21 1.2G
[CMP]dewiki-20210901-pages-meta-history2.xml-p445558p474265.7z2021-09-04 07:17 270M
[ARC]dewiki-20210901-pages-meta-history2.xml-p445558p474265.bz22021-09-03 07:26 1.7G
[CMP]dewiki-20210901-pages-meta-history2.xml-p474266p504391.7z2021-09-04 07:15 241M
[ARC]dewiki-20210901-pages-meta-history2.xml-p474266p504391.bz22021-09-03 07:24 1.2G
[CMP]dewiki-20210901-pages-meta-history2.xml-p504392p544496.7z2021-09-04 07:12 238M
[ARC]dewiki-20210901-pages-meta-history2.xml-p504392p544496.bz22021-09-03 07:18 1.0G
[CMP]dewiki-20210901-pages-meta-history2.xml-p544497p585300.7z2021-09-04 07:29 244M
[ARC]dewiki-20210901-pages-meta-history2.xml-p544497p585300.bz22021-09-03 07:53 1.0G
[CMP]dewiki-20210901-pages-meta-history2.xml-p585301p621737.7z2021-09-04 07:32 293M
[ARC]dewiki-20210901-pages-meta-history2.xml-p585301p621737.bz22021-09-03 08:08 2.1G
[CMP]dewiki-20210901-pages-meta-history2.xml-p621738p666195.7z2021-09-04 07:30 255M
[ARC]dewiki-20210901-pages-meta-history2.xml-p621738p666195.bz22021-09-03 08:00 1.2G
[CMP]dewiki-20210901-pages-meta-history2.xml-p666196p700110.7z2021-09-04 07:38 285M
[ARC]dewiki-20210901-pages-meta-history2.xml-p666196p700110.bz22021-09-03 08:09 2.2G
[CMP]dewiki-20210901-pages-meta-history2.xml-p700111p736680.7z2021-09-04 07:36 261M
[ARC]dewiki-20210901-pages-meta-history2.xml-p700111p736680.bz22021-09-03 08:08 1.6G
[CMP]dewiki-20210901-pages-meta-history2.xml-p736681p778920.7z2021-09-04 07:32 260M
[ARC]dewiki-20210901-pages-meta-history2.xml-p736681p778920.bz22021-09-03 08:03 1.4G
[CMP]dewiki-20210901-pages-meta-history2.xml-p778921p821824.7z2021-09-04 07:51 272M
[ARC]dewiki-20210901-pages-meta-history2.xml-p778921p821824.bz22021-09-03 08:42 1.5G
[CMP]dewiki-20210901-pages-meta-history2.xml-p821825p862671.7z2021-09-04 07:52 295M
[ARC]dewiki-20210901-pages-meta-history2.xml-p821825p862671.bz22021-09-03 08:47 2.0G
[CMP]dewiki-20210901-pages-meta-history2.xml-p862672p909947.7z2021-09-04 07:54 316M
[ARC]dewiki-20210901-pages-meta-history2.xml-p862672p909947.bz22021-09-03 08:50 2.3G
[CMP]dewiki-20210901-pages-meta-history2.xml-p909948p962981.7z2021-09-04 07:49 264M
[ARC]dewiki-20210901-pages-meta-history2.xml-p909948p962981.bz22021-09-03 08:41 1.3G
[CMP]dewiki-20210901-pages-meta-history2.xml-p962982p1010267.7z2021-09-04 07:47 253M
[ARC]dewiki-20210901-pages-meta-history2.xml-p962982p1010267.bz22021-09-03 08:37 1.1G
[CMP]dewiki-20210901-pages-meta-history2.xml-p1010268p1061465.7z2021-09-04 07:54 311M
[ARC]dewiki-20210901-pages-meta-history2.xml-p1010268p1061465.bz22021-09-03 08:50 2.3G
[CMP]dewiki-20210901-pages-meta-history2.xml-p1061466p1124757.7z2021-09-04 08:06 276M
[ARC]dewiki-20210901-pages-meta-history2.xml-p1061466p1124757.bz22021-09-03 09:27 1.5G
[CMP]dewiki-20210901-pages-meta-history2.xml-p1124758p1180353.7z2021-09-04 08:07 289M
[ARC]dewiki-20210901-pages-meta-history2.xml-p1124758p1180353.bz22021-09-03 09:29 1.8G
[CMP]dewiki-20210901-pages-meta-history2.xml-p1180354p1238709.7z2021-09-04 08:09 314M
[ARC]dewiki-20210901-pages-meta-history2.xml-p1180354p1238709.bz22021-09-03 09:36 2.4G
[CMP]dewiki-20210901-pages-meta-history2.xml-p1238710p1262093.7z2021-09-04 07:58 110M
[ARC]dewiki-20210901-pages-meta-history2.xml-p1238710p1262093.bz22021-09-03 09:10 602M
[CMP]dewiki-20210901-pages-meta-history3.xml-p1262094p1322217.7z2021-09-04 08:07 279M
[ARC]dewiki-20210901-pages-meta-history3.xml-p1262094p1322217.bz22021-09-03 09:19 1.6G
[CMP]dewiki-20210901-pages-meta-history3.xml-p1322218p1384026.7z2021-09-04 08:06 341M
[ARC]dewiki-20210901-pages-meta-history3.xml-p1322218p1384026.bz22021-09-03 09:28 1.6G
[CMP]dewiki-20210901-pages-meta-history3.xml-p1384027p1447254.7z2021-09-04 08:23 334M
[ARC]dewiki-20210901-pages-meta-history3.xml-p1384027p1447254.bz22021-09-03 10:17 2.4G
[CMP]dewiki-20210901-pages-meta-history3.xml-p1447255p1517633.7z2021-09-04 08:26 338M
[ARC]dewiki-20210901-pages-meta-history3.xml-p1447255p1517633.bz22021-09-03 10:15 1.9G
[CMP]dewiki-20210901-pages-meta-history3.xml-p1517634p1589535.7z2021-09-04 08:24 288M
[ARC]dewiki-20210901-pages-meta-history3.xml-p1517634p1589535.bz22021-09-03 10:12 1.6G
[CMP]dewiki-20210901-pages-meta-history3.xml-p1589536p1659386.7z2021-09-04 08:28 326M
[ARC]dewiki-20210901-pages-meta-history3.xml-p1589536p1659386.bz22021-09-03 10:22 2.4G
[CMP]dewiki-20210901-pages-meta-history3.xml-p1659387p1727378.7z2021-09-04 08:23 318M
[ARC]dewiki-20210901-pages-meta-history3.xml-p1659387p1727378.bz22021-09-03 10:11 1.7G
[CMP]dewiki-20210901-pages-meta-history3.xml-p1727379p1800666.7z2021-09-04 08:26 294M
[ARC]dewiki-20210901-pages-meta-history3.xml-p1727379p1800666.bz22021-09-03 10:14 1.7G
[CMP]dewiki-20210901-pages-meta-history3.xml-p1800667p1880464.7z2021-09-04 08:40 342M
[ARC]dewiki-20210901-pages-meta-history3.xml-p1800667p1880464.bz22021-09-03 11:00 1.9G
[CMP]dewiki-20210901-pages-meta-history3.xml-p1880465p1965901.7z2021-09-04 08:42 322M
[ARC]dewiki-20210901-pages-meta-history3.xml-p1880465p1965901.bz22021-09-03 11:03 2.2G
[CMP]dewiki-20210901-pages-meta-history3.xml-p1965902p2078042.7z2021-09-04 08:40 290M
[ARC]dewiki-20210901-pages-meta-history3.xml-p1965902p2078042.bz22021-09-03 10:59 1.7G
[CMP]dewiki-20210901-pages-meta-history3.xml-p2078043p2164232.7z2021-09-04 08:42 316M
[ARC]dewiki-20210901-pages-meta-history3.xml-p2078043p2164232.bz22021-09-03 11:02 2.0G
[CMP]dewiki-20210901-pages-meta-history3.xml-p2164233p2266915.7z2021-09-04 08:42 320M
[ARC]dewiki-20210901-pages-meta-history3.xml-p2164233p2266915.bz22021-09-03 11:03 2.0G
[CMP]dewiki-20210901-pages-meta-history3.xml-p2266916p2372689.7z2021-09-04 08:41 313M
[ARC]dewiki-20210901-pages-meta-history3.xml-p2266916p2372689.bz22021-09-03 11:01 1.9G
[CMP]dewiki-20210901-pages-meta-history3.xml-p2372690p2490352.7z2021-09-04 08:54 308M
[ARC]dewiki-20210901-pages-meta-history3.xml-p2372690p2490352.bz22021-09-03 11:39 1.7G
[CMP]dewiki-20210901-pages-meta-history3.xml-p2490353p2593565.7z2021-09-04 08:56 309M
[ARC]dewiki-20210901-pages-meta-history3.xml-p2490353p2593565.bz22021-09-03 11:44 2.4G
[CMP]dewiki-20210901-pages-meta-history3.xml-p2593566p2692010.7z2021-09-04 09:00 364M
[ARC]dewiki-20210901-pages-meta-history3.xml-p2593566p2692010.bz22021-09-03 11:55 3.1G
[CMP]dewiki-20210901-pages-meta-history3.xml-p2692011p2782091.7z2021-09-04 08:58 370M
[ARC]dewiki-20210901-pages-meta-history3.xml-p2692011p2782091.bz22021-09-03 11:45 3.1G
[CMP]dewiki-20210901-pages-meta-history3.xml-p2782092p2874585.7z2021-09-04 08:55 311M
[ARC]dewiki-20210901-pages-meta-history3.xml-p2782092p2874585.bz22021-09-03 11:34 1.9G
[CMP]dewiki-20210901-pages-meta-history3.xml-p2874586p2981879.7z2021-09-04 08:55 341M
[ARC]dewiki-20210901-pages-meta-history3.xml-p2874586p2981879.bz22021-09-03 11:43 2.2G
[CMP]dewiki-20210901-pages-meta-history3.xml-p2981880p3081767.7z2021-09-04 09:17 357M
[ARC]dewiki-20210901-pages-meta-history3.xml-p2981880p3081767.bz22021-09-03 12:44 3.0G
[CMP]dewiki-20210901-pages-meta-history3.xml-p3081768p3174685.7z2021-09-04 09:15 328M
[ARC]dewiki-20210901-pages-meta-history3.xml-p3081768p3174685.bz22021-09-03 12:32 2.5G
[CMP]dewiki-20210901-pages-meta-history3.xml-p3174686p3297674.7z2021-09-04 09:14 323M
[ARC]dewiki-20210901-pages-meta-history3.xml-p3174686p3297674.bz22021-09-03 12:28 1.9G
[CMP]dewiki-20210901-pages-meta-history3.xml-p3297675p3376257.7z2021-09-04 09:10 243M
[ARC]dewiki-20210901-pages-meta-history3.xml-p3297675p3376257.bz22021-09-03 12:25 1.4G
[CMP]dewiki-20210901-pages-meta-history4.xml-p3376258p3478459.7z2021-09-04 09:13 321M
[ARC]dewiki-20210901-pages-meta-history4.xml-p3376258p3478459.bz22021-09-03 12:27 1.9G
[CMP]dewiki-20210901-pages-meta-history4.xml-p3478460p3592765.7z2021-09-04 09:13 359M
[ARC]dewiki-20210901-pages-meta-history4.xml-p3478460p3592765.bz22021-09-03 12:34 2.0G
[CMP]dewiki-20210901-pages-meta-history4.xml-p3592766p3699673.7z2021-09-04 09:28 350M
[ARC]dewiki-20210901-pages-meta-history4.xml-p3592766p3699673.bz22021-09-03 13:21 1.6G
[CMP]dewiki-20210901-pages-meta-history4.xml-p3699674p3804402.7z2021-09-04 09:31 344M
[ARC]dewiki-20210901-pages-meta-history4.xml-p3699674p3804402.bz22021-09-03 13:26 2.3G
[CMP]dewiki-20210901-pages-meta-history4.xml-p3804403p3910701.7z2021-09-04 09:31 345M
[ARC]dewiki-20210901-pages-meta-history4.xml-p3804403p3910701.bz22021-09-03 13:31 2.2G
[CMP]dewiki-20210901-pages-meta-history4.xml-p3910702p4036723.7z2021-09-04 09:31 322M
[ARC]dewiki-20210901-pages-meta-history4.xml-p3910702p4036723.bz22021-09-03 13:27 1.9G
[CMP]dewiki-20210901-pages-meta-history4.xml-p4036724p4146875.7z2021-09-04 09:32 356M
[ARC]dewiki-20210901-pages-meta-history4.xml-p4036724p4146875.bz22021-09-03 13:31 2.2G
[CMP]dewiki-20210901-pages-meta-history4.xml-p4146876p4263179.7z2021-09-04 09:33 417M
[ARC]dewiki-20210901-pages-meta-history4.xml-p4146876p4263179.bz22021-09-03 13:31 2.7G
[CMP]dewiki-20210901-pages-meta-history4.xml-p4263180p4330245.7z2021-09-04 09:50 304M
[ARC]dewiki-20210901-pages-meta-history4.xml-p4263180p4330245.bz22021-09-03 14:25 3.0G
[CMP]dewiki-20210901-pages-meta-history4.xml-p4330246p4390177.7z2021-09-04 09:49 350M
[ARC]dewiki-20210901-pages-meta-history4.xml-p4330246p4390177.bz22021-09-03 14:14 3.4G
[CMP]dewiki-20210901-pages-meta-history4.xml-p4390178p4470214.7z2021-09-04 09:48 338M
[ARC]dewiki-20210901-pages-meta-history4.xml-p4390178p4470214.bz22021-09-03 14:26 3.0G
[CMP]dewiki-20210901-pages-meta-history4.xml-p4470215p4569613.7z2021-09-04 09:46 355M
[ARC]dewiki-20210901-pages-meta-history4.xml-p4470215p4569613.bz22021-09-03 14:08 2.1G
[CMP]dewiki-20210901-pages-meta-history4.xml-p4569614p4690058.7z2021-09-04 09:48 383M
[ARC]dewiki-20210901-pages-meta-history4.xml-p4569614p4690058.bz22021-09-03 14:20 2.7G
[CMP]dewiki-20210901-pages-meta-history4.xml-p4690059p4801653.7z2021-09-04 09:47 352M
[ARC]dewiki-20210901-pages-meta-history4.xml-p4690059p4801653.bz22021-09-03 14:19 3.1G
[CMP]dewiki-20210901-pages-meta-history4.xml-p4801654p4928429.7z2021-09-04 10:07 384M
[ARC]dewiki-20210901-pages-meta-history4.xml-p4801654p4928429.bz22021-09-03 15:17 3.0G
[CMP]dewiki-20210901-pages-meta-history4.xml-p4928430p5022316.7z2021-09-04 10:06 355M
[ARC]dewiki-20210901-pages-meta-history4.xml-p4928430p5022316.bz22021-09-03 15:17 3.0G
[CMP]dewiki-20210901-pages-meta-history4.xml-p5022317p5129930.7z2021-09-04 10:06 352M
[ARC]dewiki-20210901-pages-meta-history4.xml-p5022317p5129930.bz22021-09-03 15:18 2.9G
[CMP]dewiki-20210901-pages-meta-history4.xml-p5129931p5262735.7z2021-09-04 10:07 335M
[ARC]dewiki-20210901-pages-meta-history4.xml-p5129931p5262735.bz22021-09-03 15:16 2.3G
[CMP]dewiki-20210901-pages-meta-history4.xml-p5262736p5364556.7z2021-09-04 10:06 336M
[ARC]dewiki-20210901-pages-meta-history4.xml-p5262736p5364556.bz22021-09-03 15:13 2.5G
[CMP]dewiki-20210901-pages-meta-history4.xml-p5364557p5478536.7z2021-09-04 10:08 394M
[ARC]dewiki-20210901-pages-meta-history4.xml-p5364557p5478536.bz22021-09-03 15:17 3.2G
[CMP]dewiki-20210901-pages-meta-history4.xml-p5478537p5594612.7z2021-09-04 10:21 357M
[ARC]dewiki-20210901-pages-meta-history4.xml-p5478537p5594612.bz22021-09-03 16:02 2.3G
[CMP]dewiki-20210901-pages-meta-history4.xml-p5594613p5719474.7z2021-09-04 10:22 357M
[ARC]dewiki-20210901-pages-meta-history4.xml-p5594613p5719474.bz22021-09-03 16:05 2.5G
[CMP]dewiki-20210901-pages-meta-history4.xml-p5719475p5856030.7z2021-09-04 10:23 396M
[ARC]dewiki-20210901-pages-meta-history4.xml-p5719475p5856030.bz22021-09-03 16:07 3.0G
[CMP]dewiki-20210901-pages-meta-history4.xml-p5856031p5958551.7z2021-09-04 10:23 348M
[ARC]dewiki-20210901-pages-meta-history4.xml-p5856031p5958551.bz22021-09-03 16:08 2.6G
[CMP]dewiki-20210901-pages-meta-history4.xml-p5958552p6082222.7z2021-09-04 10:22 380M
[ARC]dewiki-20210901-pages-meta-history4.xml-p5958552p6082222.bz22021-09-03 15:59 2.7G
[CMP]dewiki-20210901-pages-meta-history4.xml-p6082223p6115464.7z2021-09-04 10:14 119M
[ARC]dewiki-20210901-pages-meta-history4.xml-p6082223p6115464.bz22021-09-03 15:32 786M
[CMP]dewiki-20210901-pages-meta-history5.xml-p6115465p6242483.7z2021-09-04 10:39 368M
[ARC]dewiki-20210901-pages-meta-history5.xml-p6115465p6242483.bz22021-09-03 16:47 2.7G
[CMP]dewiki-20210901-pages-meta-history5.xml-p6242484p6334567.7z2021-09-04 10:38 337M
[ARC]dewiki-20210901-pages-meta-history5.xml-p6242484p6334567.bz22021-09-03 16:56 2.7G
[CMP]dewiki-20210901-pages-meta-history5.xml-p6334568p6428998.7z2021-09-04 10:39 347M
[ARC]dewiki-20210901-pages-meta-history5.xml-p6334568p6428998.bz22021-09-03 16:59 2.9G
[CMP]dewiki-20210901-pages-meta-history5.xml-p6428999p6522987.7z2021-09-04 10:39 336M
[ARC]dewiki-20210901-pages-meta-history5.xml-p6428999p6522987.bz22021-09-03 16:58 2.7G
[CMP]dewiki-20210901-pages-meta-history5.xml-p6522988p6529934.7z2021-09-04 10:40 249M
[ARC]dewiki-20210901-pages-meta-history5.xml-p6522988p6529934.bz22021-09-03 17:04 4.6G
[CMP]dewiki-20210901-pages-meta-history5.xml-p6529935p6612030.7z2021-09-04 10:45 393M
[ARC]dewiki-20210901-pages-meta-history5.xml-p6529935p6612030.bz22021-09-03 17:21 4.3G
[CMP]dewiki-20210901-pages-meta-history5.xml-p6612031p6678847.7z2021-09-04 11:13 515M
[ARC]dewiki-20210901-pages-meta-history5.xml-p6612031p6678847.bz22021-09-03 18:40 6.7G
[CMP]dewiki-20210901-pages-meta-history5.xml-p6678848p6746983.7z2021-09-04 11:01 298M
[ARC]dewiki-20210901-pages-meta-history5.xml-p6678848p6746983.bz22021-09-03 18:02 3.1G
[CMP]dewiki-20210901-pages-meta-history5.xml-p6746984p6862381.7z2021-09-04 11:00 369M
[ARC]dewiki-20210901-pages-meta-history5.xml-p6746984p6862381.bz22021-09-03 18:09 2.6G
[CMP]dewiki-20210901-pages-meta-history5.xml-p6862382p6974528.7z2021-09-04 11:02 357M
[ARC]dewiki-20210901-pages-meta-history5.xml-p6862382p6974528.bz22021-09-03 18:08 2.2G
[CMP]dewiki-20210901-pages-meta-history5.xml-p6974529p7044664.7z2021-09-04 11:01 295M
[ARC]dewiki-20210901-pages-meta-history5.xml-p6974529p7044664.bz22021-09-03 17:58 2.3G
[CMP]dewiki-20210901-pages-meta-history5.xml-p7044665p7076412.7z2021-09-04 11:18 547M
[ARC]dewiki-20210901-pages-meta-history5.xml-p7044665p7076412.bz22021-09-03 19:05 9.8G
[CMP]dewiki-20210901-pages-meta-history5.xml-p7076413p7165977.7z2021-09-04 11:35 346M
[ARC]dewiki-20210901-pages-meta-history5.xml-p7076413p7165977.bz22021-09-03 20:00 1.8G
[CMP]dewiki-20210901-pages-meta-history5.xml-p7165978p7378048.7z2021-09-04 11:31 344M
[ARC]dewiki-20210901-pages-meta-history5.xml-p7165978p7378048.bz22021-09-03 19:36 1.6G
[CMP]dewiki-20210901-pages-meta-history5.xml-p7378049p7515519.7z2021-09-04 11:32 394M
[ARC]dewiki-20210901-pages-meta-history5.xml-p7378049p7515519.bz22021-09-03 19:46 2.0G
[CMP]dewiki-20210901-pages-meta-history5.xml-p7515520p7640644.7z2021-09-04 11:34 380M
[ARC]dewiki-20210901-pages-meta-history5.xml-p7515520p7640644.bz22021-09-03 19:52 2.3G
[CMP]dewiki-20210901-pages-meta-history5.xml-p7640645p7755757.7z2021-09-04 11:33 363M
[ARC]dewiki-20210901-pages-meta-history5.xml-p7640645p7755757.bz22021-09-03 19:47 2.7G
[CMP]dewiki-20210901-pages-meta-history5.xml-p7755758p7887021.7z2021-09-04 11:34 376M
[ARC]dewiki-20210901-pages-meta-history5.xml-p7755758p7887021.bz22021-09-03 19:53 2.1G
[CMP]dewiki-20210901-pages-meta-history5.xml-p7887022p8025060.7z2021-09-04 11:50 412M
[ARC]dewiki-20210901-pages-meta-history5.xml-p7887022p8025060.bz22021-09-03 20:47 2.7G
[CMP]dewiki-20210901-pages-meta-history5.xml-p8025061p8135169.7z2021-09-04 11:50 402M
[ARC]dewiki-20210901-pages-meta-history5.xml-p8025061p8135169.bz22021-09-03 20:53 3.1G
[CMP]dewiki-20210901-pages-meta-history5.xml-p8135170p8269241.7z2021-09-04 11:51 395M
[ARC]dewiki-20210901-pages-meta-history5.xml-p8135170p8269241.bz22021-09-03 20:39 2.2G
[CMP]dewiki-20210901-pages-meta-history5.xml-p8269242p8401958.7z2021-09-04 11:50 398M
[ARC]dewiki-20210901-pages-meta-history5.xml-p8269242p8401958.bz22021-09-03 20:45 2.2G
[CMP]dewiki-20210901-pages-meta-history5.xml-p8401959p8531911.7z2021-09-04 11:50 391M
[ARC]dewiki-20210901-pages-meta-history5.xml-p8401959p8531911.bz22021-09-03 20:47 2.3G
[CMP]dewiki-20210901-pages-meta-history5.xml-p8531912p8736760.7z2021-09-04 11:47 327M
[ARC]dewiki-20210901-pages-meta-history5.xml-p8531912p8736760.bz22021-09-03 20:37 1.5G
[CMP]dewiki-20210901-pages-meta-history5.xml-p8736761p8890899.7z2021-09-04 12:05 394M
[ARC]dewiki-20210901-pages-meta-history5.xml-p8736761p8890899.bz22021-09-03 21:38 2.3G
[CMP]dewiki-20210901-pages-meta-history5.xml-p8890900p9013523.7z2021-09-04 12:06 397M
[ARC]dewiki-20210901-pages-meta-history5.xml-p8890900p9013523.bz22021-09-03 21:40 2.4G
[CMP]dewiki-20210901-pages-meta-history5.xml-p9013524p9082351.7z2021-09-04 12:33 761M
[ARC]dewiki-20210901-pages-meta-history5.xml-p9013524p9082351.bz22021-09-03 23:01 12G
[CMP]dewiki-20210901-pages-meta-history5.xml-p9082352p9197175.7z2021-09-04 12:08 477M
[ARC]dewiki-20210901-pages-meta-history5.xml-p9082352p9197175.bz22021-09-03 21:41 4.2G
[CMP]dewiki-20210901-pages-meta-history5.xml-p9197176p9261244.7z2021-09-04 11:55 103M
[ARC]dewiki-20210901-pages-meta-history5.xml-p9197176p9261244.bz22021-09-03 21:07 596M
[CMP]dewiki-20210901-pages-meta-history6.xml-p9261245p9461376.7z2021-09-04 12:05 425M
[ARC]dewiki-20210901-pages-meta-history6.xml-p9261245p9461376.bz22021-09-03 21:31 2.2G
[CMP]dewiki-20210901-pages-meta-history6.xml-p9461377p9604470.7z2021-09-04 12:49 435M
[ARC]dewiki-20210901-pages-meta-history6.xml-p9461377p9604470.bz22021-09-03 23:48 2.9G
[CMP]dewiki-20210901-pages-meta-history6.xml-p9604471p9665927.7z2021-09-04 12:47 360M
[ARC]dewiki-20210901-pages-meta-history6.xml-p9604471p9665927.bz22021-09-03 23:45 2.5G
[CMP]dewiki-20210901-pages-meta-history6.xml-p9665928p9740706.7z2021-09-04 12:46 350M
[ARC]dewiki-20210901-pages-meta-history6.xml-p9665928p9740706.bz22021-09-03 23:46 2.9G
[CMP]dewiki-20210901-pages-meta-history6.xml-p9740707p9759826.7z2021-09-04 12:47 387M
[ARC]dewiki-20210901-pages-meta-history6.xml-p9740707p9759826.bz22021-09-03 23:46 3.0G
[CMP]dewiki-20210901-pages-meta-history6.xml-p9759827p9928540.7z2021-09-04 12:47 431M
[ARC]dewiki-20210901-pages-meta-history6.xml-p9759827p9928540.bz22021-09-03 23:44 2.2G
[CMP]dewiki-20210901-pages-meta-history6.xml-p9928541p9973220.7z2021-09-04 12:48 575M
[ARC]dewiki-20210901-pages-meta-history6.xml-p9928541p9973220.bz22021-09-03 23:51 3.1G
[CMP]dewiki-20210901-pages-meta-history6.xml-p9973221p10070615.7z2021-09-04 13:04 379M
[ARC]dewiki-20210901-pages-meta-history6.xml-p9973221p10070615.bz22021-09-04 00:38 2.1G
[CMP]dewiki-20210901-pages-meta-history6.xml-p10070616p10240083.7z2021-09-04 13:04 438M
[ARC]dewiki-20210901-pages-meta-history6.xml-p10070616p10240083.bz22021-09-04 00:38 2.4G
[CMP]dewiki-20210901-pages-meta-history6.xml-p10240084p10281910.7z2021-09-04 13:05 473M
[ARC]dewiki-20210901-pages-meta-history6.xml-p10240084p10281910.bz22021-09-04 00:40 2.7G
[CMP]dewiki-20210901-pages-meta-history6.xml-p10281911p10453712.7z2021-09-04 13:04 420M
[ARC]dewiki-20210901-pages-meta-history6.xml-p10281911p10453712.bz22021-09-04 00:38 2.3G
[CMP]dewiki-20210901-pages-meta-history6.xml-p10453713p10659473.7z2021-09-04 13:03 447M
[ARC]dewiki-20210901-pages-meta-history6.xml-p10453713p10659473.bz22021-09-04 00:35 2.3G
[CMP]dewiki-20210901-pages-meta-history6.xml-p10659474p10822457.7z2021-09-04 13:04 482M
[ARC]dewiki-20210901-pages-meta-history6.xml-p10659474p10822457.bz22021-09-04 00:38 2.5G
[CMP]dewiki-20210901-pages-meta-history6.xml-p10822458p11033599.7z2021-09-04 13:19 405M
[ARC]dewiki-20210901-pages-meta-history6.xml-p10822458p11033599.bz22021-09-04 01:19 1.6G
[CMP]dewiki-20210901-pages-meta-history6.xml-p11033600p11178690.7z2021-09-04 13:23 397M
[ARC]dewiki-20210901-pages-meta-history6.xml-p11033600p11178690.bz22021-09-04 01:31 3.3G
[CMP]dewiki-20210901-pages-meta-history6.xml-p11178691p11256191.7z2021-09-04 13:24 418M
[ARC]dewiki-20210901-pages-meta-history6.xml-p11178691p11256191.bz22021-09-04 01:38 4.3G
[CMP]dewiki-20210901-pages-meta-history6.xml-p11256192p11467469.7z2021-09-04 13:20 439M
[ARC]dewiki-20210901-pages-meta-history6.xml-p11256192p11467469.bz22021-09-04 01:25 2.0G
[CMP]dewiki-20210901-pages-meta-history6.xml-p11467470p11617026.7z2021-09-04 13:22 404M
[ARC]dewiki-20210901-pages-meta-history6.xml-p11467470p11617026.bz22021-09-04 01:32 3.2G
[CMP]dewiki-20210901-pages-meta-history6.xml-p11617027p11835767.7z2021-09-04 13:22 520M
[ARC]dewiki-20210901-pages-meta-history6.xml-p11617027p11835767.bz22021-09-04 01:32 3.4G
[CMP]dewiki-20210901-pages-meta-history6.xml-p11835768p11906022.7z2021-09-04 13:29 169M
[ARC]dewiki-20210901-pages-meta-history6.xml-p11835768p11906022.bz22021-09-04 02:17 1.3G
[ARC]dewiki-20210901-protected_titles.sql.gz2021-09-01 18:51 3.4M
[ARC]dewiki-20210901-redirect.sql.gz2021-09-01 18:51 22M
[TXT]dewiki-20210901-runsettings.txt2021-09-01 13:57 84
[   ]dewiki-20210901-sha1sums.json2021-09-04 13:50 42K
[TXT]dewiki-20210901-sha1sums.txt2021-09-04 13:50 40K
[ARC]dewiki-20210901-site_stats.sql.gz2021-09-01 18:33 828
[ARC]dewiki-20210901-siteinfo-namespaces.json.gz2021-09-02 21:14 6.0K
[ARC]dewiki-20210901-sites.sql.gz2021-09-01 20:10 21K
[ARC]dewiki-20210901-stub-articles.xml.gz2021-09-01 18:22 505M
[ARC]dewiki-20210901-stub-articles1.xml.gz2021-09-01 16:52 16M
[ARC]dewiki-20210901-stub-articles2.xml.gz2021-09-01 17:10 42M
[ARC]dewiki-20210901-stub-articles3.xml.gz2021-09-01 17:33 74M
[ARC]dewiki-20210901-stub-articles4.xml.gz2021-09-01 17:45 101M
[ARC]dewiki-20210901-stub-articles5.xml.gz2021-09-01 18:05 139M
[ARC]dewiki-20210901-stub-articles6.xml.gz2021-09-01 16:46 133M
[ARC]dewiki-20210901-stub-meta-current.xml.gz2021-09-01 18:22 726M
[ARC]dewiki-20210901-stub-meta-current1.xml.gz2021-09-01 16:52 20M
[ARC]dewiki-20210901-stub-meta-current2.xml.gz2021-09-01 17:10 56M
[ARC]dewiki-20210901-stub-meta-current3.xml.gz2021-09-01 17:33 107M
[ARC]dewiki-20210901-stub-meta-current4.xml.gz2021-09-01 17:45 149M
[ARC]dewiki-20210901-stub-meta-current5.xml.gz2021-09-01 18:05 205M
[ARC]dewiki-20210901-stub-meta-current6.xml.gz2021-09-01 16:46 190M
[ARC]dewiki-20210901-stub-meta-history.xml.gz2021-09-01 18:22 14G
[ARC]dewiki-20210901-stub-meta-history1.xml.gz2021-09-01 16:52 2.4G
[ARC]dewiki-20210901-stub-meta-history2.xml.gz2021-09-01 17:10 2.5G
[ARC]dewiki-20210901-stub-meta-history3.xml.gz2021-09-01 17:33 2.5G
[ARC]dewiki-20210901-stub-meta-history4.xml.gz2021-09-01 17:45 2.5G
[ARC]dewiki-20210901-stub-meta-history5.xml.gz2021-09-01 18:05 2.4G
[ARC]dewiki-20210901-stub-meta-history6.xml.gz2021-09-01 16:46 1.5G
[ARC]dewiki-20210901-templatelinks.sql.gz2021-09-01 18:43 223M
[ARC]dewiki-20210901-user_former_groups.sql.gz2021-09-01 18:48 4.5K
[ARC]dewiki-20210901-user_groups.sql.gz2021-09-01 18:48 199K
[ARC]dewiki-20210901-wbc_entity_usage.sql.gz2021-09-01 20:11 146M
[   ]dumpruninfo.json2021-09-04 13:52 3.6K
[TXT]dumpruninfo.txt2021-09-04 13:52 3.1K
[   ]dumpspecialfiles.json2021-09-04 13:51 127
[   ]dumpstatus.json2021-09-04 13:51 110K
[HTM]index.html2021-09-04 13:51 86K
[TXT]md5sums-dewiki-20210901-abstract.xml.gz.txt2021-09-03 02:09 66
[TXT]md5sums-dewiki-20210901-abstract1.xml.gz.txt2021-09-03 02:09 67
[TXT]md5sums-dewiki-20210901-abstract2.xml.gz.txt2021-09-03 02:09 67
[TXT]md5sums-dewiki-20210901-abstract3.xml.gz.txt2021-09-03 02:09 67
[TXT]md5sums-dewiki-20210901-abstract4.xml.gz.txt2021-09-03 02:09 67
[TXT]md5sums-dewiki-20210901-abstract5.xml.gz.txt2021-09-03 02:09 67
[TXT]md5sums-dewiki-20210901-abstract6.xml.gz.txt2021-09-03 02:09 67
[TXT]md5sums-dewiki-20210901-all-titles-in-ns0.gz.txt2021-09-02 21:15 71
[TXT]md5sums-dewiki-20210901-all-titles.gz.txt2021-09-02 21:15 64
[TXT]md5sums-dewiki-20210901-babel.sql.gz.txt2021-09-01 20:11 63
[TXT]md5sums-dewiki-20210901-category.sql.gz.txt2021-09-01 18:48 66
[TXT]md5sums-dewiki-20210901-categorylinks.sql.gz.txt2021-09-01 18:40 71
[TXT]md5sums-dewiki-20210901-change_tag.sql.gz.txt2021-09-01 18:53 68
[TXT]md5sums-dewiki-20210901-change_tag_def.sql.gz.txt2021-09-01 18:54 72
[TXT]md5sums-dewiki-20210901-externallinks.sql.gz.txt2021-09-01 18:46 71
[TXT]md5sums-dewiki-20210901-flaggedimages.sql.gz.txt2021-09-01 19:33 71
[TXT]md5sums-dewiki-20210901-flaggedpage_config.sql.gz.txt2021-09-01 19:36 76
[TXT]md5sums-dewiki-20210901-flaggedpage_pending.sql.gz.txt2021-09-01 19:36 77
[TXT]md5sums-dewiki-20210901-flaggedpages.sql.gz.txt2021-09-01 18:54 70
[TXT]md5sums-dewiki-20210901-flaggedrevs.sql.gz.txt2021-09-01 19:00 69
[TXT]md5sums-dewiki-20210901-flaggedrevs_promote.sql.gz.txt2021-09-01 19:37 77
[TXT]md5sums-dewiki-20210901-flaggedrevs_statistics.sql.gz.txt2021-09-01 19:37 80
[TXT]md5sums-dewiki-20210901-flaggedrevs_tracking.sql.gz.txt2021-09-01 19:37 78
[TXT]md5sums-dewiki-20210901-flaggedtemplates.sql.gz.txt2021-09-01 20:09 74
[TXT]md5sums-dewiki-20210901-geo_tags.sql.gz.txt2021-09-01 18:52 66
[TXT]md5sums-dewiki-20210901-image.sql.gz.txt2021-09-01 18:33 63
[TXT]md5sums-dewiki-20210901-imagelinks.sql.gz.txt2021-09-01 18:41 68
[TXT]md5sums-dewiki-20210901-iwlinks.sql.gz.txt2021-09-01 18:52 65
[TXT]md5sums-dewiki-20210901-langlinks.sql.gz.txt2021-09-01 18:47 67
[TXT]md5sums-dewiki-20210901-page.sql.gz.txt2021-09-01 18:50 62
[TXT]md5sums-dewiki-20210901-page_props.sql.gz.txt2021-09-01 18:51 68
[TXT]md5sums-dewiki-20210901-page_restrictions.sql.gz.txt2021-09-01 18:50 75
[TXT]md5sums-dewiki-20210901-pagelinks.sql.gz.txt2021-09-01 18:38 67
[TXT]md5sums-dewiki-20210901-pages-articles-multistream-index.txt.bz2.txt2021-09-02 03:56 91
[TXT]md5sums-dewiki-20210901-pages-articles-multistream-index1.txt-p1p297012.bz2.txt2021-09-02 03:45 102
[TXT]md5sums-dewiki-20210901-pages-articles-multistream-index2.txt-p297013p1262093.bz2.txt2021-09-02 03:46 108
[TXT]md5sums-dewiki-20210901-pages-articles-multistream-index3.txt-p1262094p2762093.bz2.txt2021-09-02 03:46 109
[TXT]md5sums-dewiki-20210901-pages-articles-multistream-index3.txt-p2762094p3376257.bz2.txt2021-09-02 03:46 109
[TXT]md5sums-dewiki-20210901-pages-articles-multistream-index4.txt-p3376258p4876257.bz2.txt2021-09-02 03:47 109
[TXT]md5sums-dewiki-20210901-pages-articles-multistream-index4.txt-p4876258p6115464.bz2.txt2021-09-02 03:47 109
[TXT]md5sums-dewiki-20210901-pages-articles-multistream-index5.txt-p6115465p7615464.bz2.txt2021-09-02 03:47 109
[TXT]md5sums-dewiki-20210901-pages-articles-multistream-index5.txt-p7615465p9115464.bz2.txt2021-09-02 03:48 109
[TXT]md5sums-dewiki-20210901-pages-articles-multistream-index5.txt-p9115465p9261244.bz2.txt2021-09-02 03:48 109
[TXT]md5sums-dewiki-20210901-pages-articles-multistream-index6.txt-p9261245p10761244.bz2.txt2021-09-02 03:48 110
[TXT]md5sums-dewiki-20210901-pages-articles-multistream-index6.txt-p10761245p11906021.bz2.txt2021-09-02 03:48 111
[TXT]md5sums-dewiki-20210901-pages-articles-multistream.xml.bz2.txt2021-09-02 03:55 85
[TXT]md5sums-dewiki-20210901-pages-articles-multistream1.xml-p1p297012.bz2.txt2021-09-02 03:45 96
[TXT]md5sums-dewiki-20210901-pages-articles-multistream2.xml-p297013p1262093.bz2.txt2021-09-02 03:45 102
[TXT]md5sums-dewiki-20210901-pages-articles-multistream3.xml-p1262094p2762093.bz2.txt2021-09-02 03:46 103
[TXT]md5sums-dewiki-20210901-pages-articles-multistream3.xml-p2762094p3376257.bz2.txt2021-09-02 03:46 103
[TXT]md5sums-dewiki-20210901-pages-articles-multistream4.xml-p3376258p4876257.bz2.txt2021-09-02 03:46 103
[TXT]md5sums-dewiki-20210901-pages-articles-multistream4.xml-p4876258p6115464.bz2.txt2021-09-02 03:47 103
[TXT]md5sums-dewiki-20210901-pages-articles-multistream5.xml-p6115465p7615464.bz2.txt2021-09-02 03:47 103
[TXT]md5sums-dewiki-20210901-pages-articles-multistream5.xml-p7615465p9115464.bz2.txt2021-09-02 03:48 103
[TXT]md5sums-dewiki-20210901-pages-articles-multistream5.xml-p9115465p9261244.bz2.txt2021-09-02 03:48 103
[TXT]md5sums-dewiki-20210901-pages-articles-multistream6.xml-p9261245p10761244.bz2.txt2021-09-02 03:48 104
[TXT]md5sums-dewiki-20210901-pages-articles-multistream6.xml-p10761245p11906021.bz2.txt2021-09-02 03:48 105
[TXT]md5sums-dewiki-20210901-pages-articles.xml.bz2.txt2021-09-01 22:45 73
[TXT]md5sums-dewiki-20210901-pages-articles1.xml-p1p297012.bz2.txt2021-09-01 22:09 84
[TXT]md5sums-dewiki-20210901-pages-articles2.xml-p297013p1262093.bz2.txt2021-09-01 22:09 90
[TXT]md5sums-dewiki-20210901-pages-articles3.xml-p1262094p2762093.bz2.txt2021-09-01 22:09 91
[TXT]md5sums-dewiki-20210901-pages-articles3.xml-p2762094p3376257.bz2.txt2021-09-01 22:09 91
[TXT]md5sums-dewiki-20210901-pages-articles4.xml-p3376258p4876257.bz2.txt2021-09-01 22:10 91
[TXT]md5sums-dewiki-20210901-pages-articles4.xml-p4876258p6115464.bz2.txt2021-09-01 22:10 91
[TXT]md5sums-dewiki-20210901-pages-articles5.xml-p6115465p7615464.bz2.txt2021-09-01 22:10 91
[TXT]md5sums-dewiki-20210901-pages-articles5.xml-p7615465p9115464.bz2.txt2021-09-01 22:10 91
[TXT]md5sums-dewiki-20210901-pages-articles5.xml-p9115465p9261244.bz2.txt2021-09-01 22:11 91
[TXT]md5sums-dewiki-20210901-pages-articles6.xml-p9261245p10761244.bz2.txt2021-09-01 22:11 92
[TXT]md5sums-dewiki-20210901-pages-articles6.xml-p10761245p11906021.bz2.txt2021-09-01 22:11 93
[TXT]md5sums-dewiki-20210901-pages-logging.xml.gz.txt2021-09-03 02:22 71
[TXT]md5sums-dewiki-20210901-pages-logging1.xml.gz.txt2021-09-03 02:20 72
[TXT]md5sums-dewiki-20210901-pages-logging2.xml.gz.txt2021-09-03 02:20 72
[TXT]md5sums-dewiki-20210901-pages-logging3.xml.gz.txt2021-09-03 02:20 72
[TXT]md5sums-dewiki-20210901-pages-logging4.xml.gz.txt2021-09-03 02:20 72
[TXT]md5sums-dewiki-20210901-pages-logging5.xml.gz.txt2021-09-03 02:21 72
[TXT]md5sums-dewiki-20210901-pages-logging6.xml.gz.txt2021-09-03 02:21 72
[TXT]md5sums-dewiki-20210901-pages-meta-current.xml.bz2.txt2021-09-02 11:47 77
[TXT]md5sums-dewiki-20210901-pages-meta-current1.xml-p1p297012.bz2.txt2021-09-02 10:51 88
[TXT]md5sums-dewiki-20210901-pages-meta-current2.xml-p297013p1262093.bz2.txt2021-09-02 10:52 94
[TXT]md5sums-dewiki-20210901-pages-meta-current3.xml-p1262094p2762093.bz2.txt2021-09-02 10:52 95
[TXT]md5sums-dewiki-20210901-pages-meta-current3.xml-p2762094p3376257.bz2.txt2021-09-02 10:52 95
[TXT]md5sums-dewiki-20210901-pages-meta-current4.xml-p3376258p4876257.bz2.txt2021-09-02 10:53 95
[TXT]md5sums-dewiki-20210901-pages-meta-current4.xml-p4876258p6115464.bz2.txt2021-09-02 10:53 95
[TXT]md5sums-dewiki-20210901-pages-meta-current5.xml-p6115465p7615464.bz2.txt2021-09-02 10:54 95
[TXT]md5sums-dewiki-20210901-pages-meta-current5.xml-p7615465p9115464.bz2.txt2021-09-02 10:54 95
[TXT]md5sums-dewiki-20210901-pages-meta-current5.xml-p9115465p9261244.bz2.txt2021-09-02 10:55 95
[TXT]md5sums-dewiki-20210901-pages-meta-current6.xml-p9261245p10761244.bz2.txt2021-09-02 10:55 96
[TXT]md5sums-dewiki-20210901-pages-meta-current6.xml-p10761245p11906022.bz2.txt2021-09-02 10:56 97
[TXT]md5sums-dewiki-20210901-pages-meta-history1.xml-p1p1598.7z.txt2021-09-04 13:29 85
[TXT]md5sums-dewiki-20210901-pages-meta-history1.xml-p1p1598.bz2.txt2021-09-04 02:19 86
[TXT]md5sums-dewiki-20210901-pages-meta-history1.xml-p1599p3235.7z.txt2021-09-04 13:29 88
[TXT]md5sums-dewiki-20210901-pages-meta-history1.xml-p1599p3235.bz2.txt2021-09-04 02:20 89
[TXT]md5sums-dewiki-20210901-pages-meta-history1.xml-p3236p5184.7z.txt2021-09-04 13:29 88
[TXT]md5sums-dewiki-20210901-pages-meta-history1.xml-p3236p5184.bz2.txt2021-09-04 02:21 89
[TXT]md5sums-dewiki-20210901-pages-meta-history1.xml-p5185p6214.7z.txt2021-09-04 13:29 88
[TXT]md5sums-dewiki-20210901-pages-meta-history1.xml-p5185p6214.bz2.txt2021-09-04 02:23 89
[TXT]md5sums-dewiki-20210901-pages-meta-history1.xml-p6215p9226.7z.txt2021-09-04 13:29 88
[TXT]md5sums-dewiki-20210901-pages-meta-history1.xml-p6215p9226.bz2.txt2021-09-04 02:24 89
[TXT]md5sums-dewiki-20210901-pages-meta-history1.xml-p9227p12066.7z.txt2021-09-04 13:29 89
[TXT]md5sums-dewiki-20210901-pages-meta-history1.xml-p9227p12066.bz2.txt2021-09-04 02:25 90
[TXT]md5sums-dewiki-20210901-pages-meta-history1.xml-p12067p15215.7z.txt2021-09-04 13:29 90
[TXT]md5sums-dewiki-20210901-pages-meta-history1.xml-p12067p15215.bz2.txt2021-09-04 02:26 91
[TXT]md5sums-dewiki-20210901-pages-meta-history1.xml-p15216p18322.7z.txt2021-09-04 13:29 90
[TXT]md5sums-dewiki-20210901-pages-meta-history1.xml-p15216p18322.bz2.txt2021-09-04 02:28 91
[TXT]md5sums-dewiki-20210901-pages-meta-history1.xml-p18323p22889.7z.txt2021-09-04 13:29 90
[TXT]md5sums-dewiki-20210901-pages-meta-history1.xml-p18323p22889.bz2.txt2021-09-04 02:29 91
[TXT]md5sums-dewiki-20210901-pages-meta-history1.xml-p22890p29827.7z.txt2021-09-04 13:29 90
[TXT]md5sums-dewiki-20210901-pages-meta-history1.xml-p22890p29827.bz2.txt2021-09-04 02:31 91
[TXT]md5sums-dewiki-20210901-pages-meta-history1.xml-p29828p34615.7z.txt2021-09-04 13:30 90
[TXT]md5sums-dewiki-20210901-pages-meta-history1.xml-p29828p34615.bz2.txt2021-09-04 02:32 91
[TXT]md5sums-dewiki-20210901-pages-meta-history1.xml-p34616p42626.7z.txt2021-09-04 13:30 90
[TXT]md5sums-dewiki-20210901-pages-meta-history1.xml-p34616p42626.bz2.txt2021-09-04 02:34 91
[TXT]md5sums-dewiki-20210901-pages-meta-history1.xml-p42627p50748.7z.txt2021-09-04 13:30 90
[TXT]md5sums-dewiki-20210901-pages-meta-history1.xml-p42627p50748.bz2.txt2021-09-04 02:35 91
[TXT]md5sums-dewiki-20210901-pages-meta-history1.xml-p50749p59095.7z.txt2021-09-04 13:30 90
[TXT]md5sums-dewiki-20210901-pages-meta-history1.xml-p50749p59095.bz2.txt2021-09-04 02:36 91
[TXT]md5sums-dewiki-20210901-pages-meta-history1.xml-p59096p70665.7z.txt2021-09-04 13:30 90
[TXT]md5sums-dewiki-20210901-pages-meta-history1.xml-p59096p70665.bz2.txt2021-09-04 02:38 91
[TXT]md5sums-dewiki-20210901-pages-meta-history1.xml-p70666p80296.7z.txt2021-09-04 13:30 90
[TXT]md5sums-dewiki-20210901-pages-meta-history1.xml-p70666p80296.bz2.txt2021-09-04 02:39 91
[TXT]md5sums-dewiki-20210901-pages-meta-history1.xml-p80297p93674.7z.txt2021-09-04 13:30 90
[TXT]md5sums-dewiki-20210901-pages-meta-history1.xml-p80297p93674.bz2.txt2021-09-04 02:40 91
[TXT]md5sums-dewiki-20210901-pages-meta-history1.xml-p93675p106386.7z.txt2021-09-04 13:30 91
[TXT]md5sums-dewiki-20210901-pages-meta-history1.xml-p93675p106386.bz2.txt2021-09-04 02:41 92
[TXT]md5sums-dewiki-20210901-pages-meta-history1.xml-p106387p121624.7z.txt2021-09-04 13:30 92
[TXT]md5sums-dewiki-20210901-pages-meta-history1.xml-p106387p121624.bz2.txt2021-09-04 02:42 93
[TXT]md5sums-dewiki-20210901-pages-meta-history1.xml-p121625p136260.7z.txt2021-09-04 13:31 92
[TXT]md5sums-dewiki-20210901-pages-meta-history1.xml-p121625p136260.bz2.txt2021-09-04 02:43 93
[TXT]md5sums-dewiki-20210901-pages-meta-history1.xml-p136261p152353.7z.txt2021-09-04 13:31 92
[TXT]md5sums-dewiki-20210901-pages-meta-history1.xml-p136261p152353.bz2.txt2021-09-04 02:44 93
[TXT]md5sums-dewiki-20210901-pages-meta-history1.xml-p152354p169188.7z.txt2021-09-04 13:31 92
[TXT]md5sums-dewiki-20210901-pages-meta-history1.xml-p152354p169188.bz2.txt2021-09-04 02:45 93
[TXT]md5sums-dewiki-20210901-pages-meta-history1.xml-p169189p187660.7z.txt2021-09-04 13:31 92
[TXT]md5sums-dewiki-20210901-pages-meta-history1.xml-p169189p187660.bz2.txt2021-09-04 02:46 93
[TXT]md5sums-dewiki-20210901-pages-meta-history1.xml-p187661p207812.7z.txt2021-09-04 13:31 92
[TXT]md5sums-dewiki-20210901-pages-meta-history1.xml-p187661p207812.bz2.txt2021-09-04 02:47 93
[TXT]md5sums-dewiki-20210901-pages-meta-history1.xml-p207813p229473.7z.txt2021-09-04 13:31 92
[TXT]md5sums-dewiki-20210901-pages-meta-history1.xml-p207813p229473.bz2.txt2021-09-04 02:48 93
[TXT]md5sums-dewiki-20210901-pages-meta-history1.xml-p229474p254168.7z.txt2021-09-04 13:31 92
[TXT]md5sums-dewiki-20210901-pages-meta-history1.xml-p229474p254168.bz2.txt2021-09-04 02:49 93
[TXT]md5sums-dewiki-20210901-pages-meta-history1.xml-p254169p276974.7z.txt2021-09-04 13:31 92
[TXT]md5sums-dewiki-20210901-pages-meta-history1.xml-p254169p276974.bz2.txt2021-09-04 02:50 93
[TXT]md5sums-dewiki-20210901-pages-meta-history1.xml-p276975p297012.7z.txt2021-09-04 13:31 92
[TXT]md5sums-dewiki-20210901-pages-meta-history1.xml-p276975p297012.bz2.txt2021-09-04 02:51 93
[TXT]md5sums-dewiki-20210901-pages-meta-history2.xml-p297013p323551.7z.txt2021-09-04 13:32 92
[TXT]md5sums-dewiki-20210901-pages-meta-history2.xml-p297013p323551.bz2.txt2021-09-04 02:52 93
[TXT]md5sums-dewiki-20210901-pages-meta-history2.xml-p323552p350617.7z.txt2021-09-04 13:32 92
[TXT]md5sums-dewiki-20210901-pages-meta-history2.xml-p323552p350617.bz2.txt2021-09-04 02:53 93
[TXT]md5sums-dewiki-20210901-pages-meta-history2.xml-p350618p380725.7z.txt2021-09-04 13:32 92
[TXT]md5sums-dewiki-20210901-pages-meta-history2.xml-p350618p380725.bz2.txt2021-09-04 02:54 93
[TXT]md5sums-dewiki-20210901-pages-meta-history2.xml-p380726p413119.7z.txt2021-09-04 13:32 92
[TXT]md5sums-dewiki-20210901-pages-meta-history2.xml-p380726p413119.bz2.txt2021-09-04 02:54 93
[TXT]md5sums-dewiki-20210901-pages-meta-history2.xml-p413120p445557.7z.txt2021-09-04 13:32 92
[TXT]md5sums-dewiki-20210901-pages-meta-history2.xml-p413120p445557.bz2.txt2021-09-04 02:55 93
[TXT]md5sums-dewiki-20210901-pages-meta-history2.xml-p445558p474265.7z.txt2021-09-04 13:32 92
[TXT]md5sums-dewiki-20210901-pages-meta-history2.xml-p445558p474265.bz2.txt2021-09-04 02:56 93
[TXT]md5sums-dewiki-20210901-pages-meta-history2.xml-p474266p504391.7z.txt2021-09-04 13:32 92
[TXT]md5sums-dewiki-20210901-pages-meta-history2.xml-p474266p504391.bz2.txt2021-09-04 02:56 93
[TXT]md5sums-dewiki-20210901-pages-meta-history2.xml-p504392p544496.7z.txt2021-09-04 13:32 92
[TXT]md5sums-dewiki-20210901-pages-meta-history2.xml-p504392p544496.bz2.txt2021-09-04 02:57 93
[TXT]md5sums-dewiki-20210901-pages-meta-history2.xml-p544497p585300.7z.txt2021-09-04 13:33 92
[TXT]md5sums-dewiki-20210901-pages-meta-history2.xml-p544497p585300.bz2.txt2021-09-04 02:57 93
[TXT]md5sums-dewiki-20210901-pages-meta-history2.xml-p585301p621737.7z.txt2021-09-04 13:33 92
[TXT]md5sums-dewiki-20210901-pages-meta-history2.xml-p585301p621737.bz2.txt2021-09-04 02:58 93
[TXT]md5sums-dewiki-20210901-pages-meta-history2.xml-p621738p666195.7z.txt2021-09-04 13:33 92
[TXT]md5sums-dewiki-20210901-pages-meta-history2.xml-p621738p666195.bz2.txt2021-09-04 02:59 93
[TXT]md5sums-dewiki-20210901-pages-meta-history2.xml-p666196p700110.7z.txt2021-09-04 13:33 92
[TXT]md5sums-dewiki-20210901-pages-meta-history2.xml-p666196p700110.bz2.txt2021-09-04 03:00 93
[TXT]md5sums-dewiki-20210901-pages-meta-history2.xml-p700111p736680.7z.txt2021-09-04 13:33 92
[TXT]md5sums-dewiki-20210901-pages-meta-history2.xml-p700111p736680.bz2.txt2021-09-04 03:01 93
[TXT]md5sums-dewiki-20210901-pages-meta-history2.xml-p736681p778920.7z.txt2021-09-04 13:33 92
[TXT]md5sums-dewiki-20210901-pages-meta-history2.xml-p736681p778920.bz2.txt2021-09-04 03:02 93
[TXT]md5sums-dewiki-20210901-pages-meta-history2.xml-p778921p821824.7z.txt2021-09-04 13:33 92
[TXT]md5sums-dewiki-20210901-pages-meta-history2.xml-p778921p821824.bz2.txt2021-09-04 03:02 93
[TXT]md5sums-dewiki-20210901-pages-meta-history2.xml-p821825p862671.7z.txt2021-09-04 13:33 92
[TXT]md5sums-dewiki-20210901-pages-meta-history2.xml-p821825p862671.bz2.txt2021-09-04 03:03 93
[TXT]md5sums-dewiki-20210901-pages-meta-history2.xml-p862672p909947.7z.txt2021-09-04 13:34 92
[TXT]md5sums-dewiki-20210901-pages-meta-history2.xml-p862672p909947.bz2.txt2021-09-04 03:04 93
[TXT]md5sums-dewiki-20210901-pages-meta-history2.xml-p909948p962981.7z.txt2021-09-04 13:34 92
[TXT]md5sums-dewiki-20210901-pages-meta-history2.xml-p909948p962981.bz2.txt2021-09-04 03:05 93
[TXT]md5sums-dewiki-20210901-pages-meta-history2.xml-p962982p1010267.7z.txt2021-09-04 13:34 93
[TXT]md5sums-dewiki-20210901-pages-meta-history2.xml-p962982p1010267.bz2.txt2021-09-04 03:06 94
[TXT]md5sums-dewiki-20210901-pages-meta-history2.xml-p1010268p1061465.7z.txt2021-09-04 13:34 94
[TXT]md5sums-dewiki-20210901-pages-meta-history2.xml-p1010268p1061465.bz2.txt2021-09-04 03:07 95
[TXT]md5sums-dewiki-20210901-pages-meta-history2.xml-p1061466p1124757.7z.txt2021-09-04 13:34 94
[TXT]md5sums-dewiki-20210901-pages-meta-history2.xml-p1061466p1124757.bz2.txt2021-09-04 03:08 95
[TXT]md5sums-dewiki-20210901-pages-meta-history2.xml-p1124758p1180353.7z.txt2021-09-04 13:34 94
[TXT]md5sums-dewiki-20210901-pages-meta-history2.xml-p1124758p1180353.bz2.txt2021-09-04 03:08 95
[TXT]md5sums-dewiki-20210901-pages-meta-history2.xml-p1180354p1238709.7z.txt2021-09-04 13:34 94
[TXT]md5sums-dewiki-20210901-pages-meta-history2.xml-p1180354p1238709.bz2.txt2021-09-04 03:10 95
[TXT]md5sums-dewiki-20210901-pages-meta-history2.xml-p1238710p1262093.7z.txt2021-09-04 13:34 94
[TXT]md5sums-dewiki-20210901-pages-meta-history2.xml-p1238710p1262093.bz2.txt2021-09-04 03:10 95
[TXT]md5sums-dewiki-20210901-pages-meta-history3.xml-p1262094p1322217.7z.txt2021-09-04 13:34 94
[TXT]md5sums-dewiki-20210901-pages-meta-history3.xml-p1262094p1322217.bz2.txt2021-09-04 03:11 95
[TXT]md5sums-dewiki-20210901-pages-meta-history3.xml-p1322218p1384026.7z.txt2021-09-04 13:35 94
[TXT]md5sums-dewiki-20210901-pages-meta-history3.xml-p1322218p1384026.bz2.txt2021-09-04 03:12 95
[TXT]md5sums-dewiki-20210901-pages-meta-history3.xml-p1384027p1447254.7z.txt2021-09-04 13:35 94
[TXT]md5sums-dewiki-20210901-pages-meta-history3.xml-p1384027p1447254.bz2.txt2021-09-04 03:13 95
[TXT]md5sums-dewiki-20210901-pages-meta-history3.xml-p1447255p1517633.7z.txt2021-09-04 13:35 94
[TXT]md5sums-dewiki-20210901-pages-meta-history3.xml-p1447255p1517633.bz2.txt2021-09-04 03:14 95
[TXT]md5sums-dewiki-20210901-pages-meta-history3.xml-p1517634p1589535.7z.txt2021-09-04 13:35 94
[TXT]md5sums-dewiki-20210901-pages-meta-history3.xml-p1517634p1589535.bz2.txt2021-09-04 03:14 95
[TXT]md5sums-dewiki-20210901-pages-meta-history3.xml-p1589536p1659386.7z.txt2021-09-04 13:35 94
[TXT]md5sums-dewiki-20210901-pages-meta-history3.xml-p1589536p1659386.bz2.txt2021-09-04 03:16 95
[TXT]md5sums-dewiki-20210901-pages-meta-history3.xml-p1659387p1727378.7z.txt2021-09-04 13:35 94
[TXT]md5sums-dewiki-20210901-pages-meta-history3.xml-p1659387p1727378.bz2.txt2021-09-04 03:16 95
[TXT]md5sums-dewiki-20210901-pages-meta-history3.xml-p1727379p1800666.7z.txt2021-09-04 13:35 94
[TXT]md5sums-dewiki-20210901-pages-meta-history3.xml-p1727379p1800666.bz2.txt2021-09-04 03:17 95
[TXT]md5sums-dewiki-20210901-pages-meta-history3.xml-p1800667p1880464.7z.txt2021-09-04 13:36 94
[TXT]md5sums-dewiki-20210901-pages-meta-history3.xml-p1800667p1880464.bz2.txt2021-09-04 03:18 95
[TXT]md5sums-dewiki-20210901-pages-meta-history3.xml-p1880465p1965901.7z.txt2021-09-04 13:36 94
[TXT]md5sums-dewiki-20210901-pages-meta-history3.xml-p1880465p1965901.bz2.txt2021-09-04 03:19 95
[TXT]md5sums-dewiki-20210901-pages-meta-history3.xml-p1965902p2078042.7z.txt2021-09-04 13:36 94
[TXT]md5sums-dewiki-20210901-pages-meta-history3.xml-p1965902p2078042.bz2.txt2021-09-04 03:20 95
[TXT]md5sums-dewiki-20210901-pages-meta-history3.xml-p2078043p2164232.7z.txt2021-09-04 13:36 94
[TXT]md5sums-dewiki-20210901-pages-meta-history3.xml-p2078043p2164232.bz2.txt2021-09-04 03:21 95
[TXT]md5sums-dewiki-20210901-pages-meta-history3.xml-p2164233p2266915.7z.txt2021-09-04 13:36 94
[TXT]md5sums-dewiki-20210901-pages-meta-history3.xml-p2164233p2266915.bz2.txt2021-09-04 03:22 95
[TXT]md5sums-dewiki-20210901-pages-meta-history3.xml-p2266916p2372689.7z.txt2021-09-04 13:36 94
[TXT]md5sums-dewiki-20210901-pages-meta-history3.xml-p2266916p2372689.bz2.txt2021-09-04 03:23 95
[TXT]md5sums-dewiki-20210901-pages-meta-history3.xml-p2372690p2490352.7z.txt2021-09-04 13:36 94
[TXT]md5sums-dewiki-20210901-pages-meta-history3.xml-p2372690p2490352.bz2.txt2021-09-04 03:24 95
[TXT]md5sums-dewiki-20210901-pages-meta-history3.xml-p2490353p2593565.7z.txt2021-09-04 13:37 94
[TXT]md5sums-dewiki-20210901-pages-meta-history3.xml-p2490353p2593565.bz2.txt2021-09-04 03:25 95
[TXT]md5sums-dewiki-20210901-pages-meta-history3.xml-p2593566p2692010.7z.txt2021-09-04 13:37 94
[TXT]md5sums-dewiki-20210901-pages-meta-history3.xml-p2593566p2692010.bz2.txt2021-09-04 03:26 95
[TXT]md5sums-dewiki-20210901-pages-meta-history3.xml-p2692011p2782091.7z.txt2021-09-04 13:37 94
[TXT]md5sums-dewiki-20210901-pages-meta-history3.xml-p2692011p2782091.bz2.txt2021-09-04 03:28 95
[TXT]md5sums-dewiki-20210901-pages-meta-history3.xml-p2782092p2874585.7z.txt2021-09-04 13:37 94
[TXT]md5sums-dewiki-20210901-pages-meta-history3.xml-p2782092p2874585.bz2.txt2021-09-04 03:29 95
[TXT]md5sums-dewiki-20210901-pages-meta-history3.xml-p2874586p2981879.7z.txt2021-09-04 13:37 94
[TXT]md5sums-dewiki-20210901-pages-meta-history3.xml-p2874586p2981879.bz2.txt2021-09-04 03:30 95
[TXT]md5sums-dewiki-20210901-pages-meta-history3.xml-p2981880p3081767.7z.txt2021-09-04 13:37 94
[TXT]md5sums-dewiki-20210901-pages-meta-history3.xml-p2981880p3081767.bz2.txt2021-09-04 03:31 95
[TXT]md5sums-dewiki-20210901-pages-meta-history3.xml-p3081768p3174685.7z.txt2021-09-04 13:38 94
[TXT]md5sums-dewiki-20210901-pages-meta-history3.xml-p3081768p3174685.bz2.txt2021-09-04 03:33 95
[TXT]md5sums-dewiki-20210901-pages-meta-history3.xml-p3174686p3297674.7z.txt2021-09-04 13:38 94
[TXT]md5sums-dewiki-20210901-pages-meta-history3.xml-p3174686p3297674.bz2.txt2021-09-04 03:35 95
[TXT]md5sums-dewiki-20210901-pages-meta-history3.xml-p3297675p3376257.7z.txt2021-09-04 13:38 94
[TXT]md5sums-dewiki-20210901-pages-meta-history3.xml-p3297675p3376257.bz2.txt2021-09-04 03:35 95
[TXT]md5sums-dewiki-20210901-pages-meta-history4.xml-p3376258p3478459.7z.txt2021-09-04 13:38 94
[TXT]md5sums-dewiki-20210901-pages-meta-history4.xml-p3376258p3478459.bz2.txt2021-09-04 03:36 95
[TXT]md5sums-dewiki-20210901-pages-meta-history4.xml-p3478460p3592765.7z.txt2021-09-04 13:38 94
[TXT]md5sums-dewiki-20210901-pages-meta-history4.xml-p3478460p3592765.bz2.txt2021-09-04 03:37 95
[TXT]md5sums-dewiki-20210901-pages-meta-history4.xml-p3592766p3699673.7z.txt2021-09-04 13:38 94
[TXT]md5sums-dewiki-20210901-pages-meta-history4.xml-p3592766p3699673.bz2.txt2021-09-04 03:38 95
[TXT]md5sums-dewiki-20210901-pages-meta-history4.xml-p3699674p3804402.7z.txt2021-09-04 13:38 94
[TXT]md5sums-dewiki-20210901-pages-meta-history4.xml-p3699674p3804402.bz2.txt2021-09-04 03:39 95
[TXT]md5sums-dewiki-20210901-pages-meta-history4.xml-p3804403p3910701.7z.txt2021-09-04 13:38 94
[TXT]md5sums-dewiki-20210901-pages-meta-history4.xml-p3804403p3910701.bz2.txt2021-09-04 03:41 95
[TXT]md5sums-dewiki-20210901-pages-meta-history4.xml-p3910702p4036723.7z.txt2021-09-04 13:39 94
[TXT]md5sums-dewiki-20210901-pages-meta-history4.xml-p3910702p4036723.bz2.txt2021-09-04 03:42 95
[TXT]md5sums-dewiki-20210901-pages-meta-history4.xml-p4036724p4146875.7z.txt2021-09-04 13:39 94
[TXT]md5sums-dewiki-20210901-pages-meta-history4.xml-p4036724p4146875.bz2.txt2021-09-04 03:43 95
[TXT]md5sums-dewiki-20210901-pages-meta-history4.xml-p4146876p4263179.7z.txt2021-09-04 13:39 94
[TXT]md5sums-dewiki-20210901-pages-meta-history4.xml-p4146876p4263179.bz2.txt2021-09-04 03:44 95
[TXT]md5sums-dewiki-20210901-pages-meta-history4.xml-p4263180p4330245.7z.txt2021-09-04 13:39 94
[TXT]md5sums-dewiki-20210901-pages-meta-history4.xml-p4263180p4330245.bz2.txt2021-09-04 03:46 95
[TXT]md5sums-dewiki-20210901-pages-meta-history4.xml-p4330246p4390177.7z.txt2021-09-04 13:39 94
[TXT]md5sums-dewiki-20210901-pages-meta-history4.xml-p4330246p4390177.bz2.txt2021-09-04 03:48 95
[TXT]md5sums-dewiki-20210901-pages-meta-history4.xml-p4390178p4470214.7z.txt2021-09-04 13:39 94
[TXT]md5sums-dewiki-20210901-pages-meta-history4.xml-p4390178p4470214.bz2.txt2021-09-04 03:49 95
[TXT]md5sums-dewiki-20210901-pages-meta-history4.xml-p4470215p4569613.7z.txt2021-09-04 13:40 94
[TXT]md5sums-dewiki-20210901-pages-meta-history4.xml-p4470215p4569613.bz2.txt2021-09-04 03:50 95
[TXT]md5sums-dewiki-20210901-pages-meta-history4.xml-p4569614p4690058.7z.txt2021-09-04 13:40 94
[TXT]md5sums-dewiki-20210901-pages-meta-history4.xml-p4569614p4690058.bz2.txt2021-09-04 03:52 95
[TXT]md5sums-dewiki-20210901-pages-meta-history4.xml-p4690059p4801653.7z.txt2021-09-04 13:40 94
[TXT]md5sums-dewiki-20210901-pages-meta-history4.xml-p4690059p4801653.bz2.txt2021-09-04 03:53 95
[TXT]md5sums-dewiki-20210901-pages-meta-history4.xml-p4801654p4928429.7z.txt2021-09-04 13:40 94
[TXT]md5sums-dewiki-20210901-pages-meta-history4.xml-p4801654p4928429.bz2.txt2021-09-04 03:55 95
[TXT]md5sums-dewiki-20210901-pages-meta-history4.xml-p4928430p5022316.7z.txt2021-09-04 13:40 94
[TXT]md5sums-dewiki-20210901-pages-meta-history4.xml-p4928430p5022316.bz2.txt2021-09-04 03:56 95
[TXT]md5sums-dewiki-20210901-pages-meta-history4.xml-p5022317p5129930.7z.txt2021-09-04 13:40 94
[TXT]md5sums-dewiki-20210901-pages-meta-history4.xml-p5022317p5129930.bz2.txt2021-09-04 03:58 95
[TXT]md5sums-dewiki-20210901-pages-meta-history4.xml-p5129931p5262735.7z.txt2021-09-04 13:41 94
[TXT]md5sums-dewiki-20210901-pages-meta-history4.xml-p5129931p5262735.bz2.txt2021-09-04 03:59 95
[TXT]md5sums-dewiki-20210901-pages-meta-history4.xml-p5262736p5364556.7z.txt2021-09-04 13:41 94
[TXT]md5sums-dewiki-20210901-pages-meta-history4.xml-p5262736p5364556.bz2.txt2021-09-04 04:00 95
[TXT]md5sums-dewiki-20210901-pages-meta-history4.xml-p5364557p5478536.7z.txt2021-09-04 13:41 94
[TXT]md5sums-dewiki-20210901-pages-meta-history4.xml-p5364557p5478536.bz2.txt2021-09-04 04:01 95
[TXT]md5sums-dewiki-20210901-pages-meta-history4.xml-p5478537p5594612.7z.txt2021-09-04 13:41 94
[TXT]md5sums-dewiki-20210901-pages-meta-history4.xml-p5478537p5594612.bz2.txt2021-09-04 04:03 95
[TXT]md5sums-dewiki-20210901-pages-meta-history4.xml-p5594613p5719474.7z.txt2021-09-04 13:41 94
[TXT]md5sums-dewiki-20210901-pages-meta-history4.xml-p5594613p5719474.bz2.txt2021-09-04 04:04 95
[TXT]md5sums-dewiki-20210901-pages-meta-history4.xml-p5719475p5856030.7z.txt2021-09-04 13:41 94
[TXT]md5sums-dewiki-20210901-pages-meta-history4.xml-p5719475p5856030.bz2.txt2021-09-04 04:05 95
[TXT]md5sums-dewiki-20210901-pages-meta-history4.xml-p5856031p5958551.7z.txt2021-09-04 13:42 94
[TXT]md5sums-dewiki-20210901-pages-meta-history4.xml-p5856031p5958551.bz2.txt2021-09-04 04:07 95
[TXT]md5sums-dewiki-20210901-pages-meta-history4.xml-p5958552p6082222.7z.txt2021-09-04 13:42 94
[TXT]md5sums-dewiki-20210901-pages-meta-history4.xml-p5958552p6082222.bz2.txt2021-09-04 04:08 95
[TXT]md5sums-dewiki-20210901-pages-meta-history4.xml-p6082223p6115464.7z.txt2021-09-04 13:42 94
[TXT]md5sums-dewiki-20210901-pages-meta-history4.xml-p6082223p6115464.bz2.txt2021-09-04 04:09 95
[TXT]md5sums-dewiki-20210901-pages-meta-history5.xml-p6115465p6242483.7z.txt2021-09-04 13:42 94
[TXT]md5sums-dewiki-20210901-pages-meta-history5.xml-p6115465p6242483.bz2.txt2021-09-04 04:10 95
[TXT]md5sums-dewiki-20210901-pages-meta-history5.xml-p6242484p6334567.7z.txt2021-09-04 13:42 94
[TXT]md5sums-dewiki-20210901-pages-meta-history5.xml-p6242484p6334567.bz2.txt2021-09-04 04:11 95
[TXT]md5sums-dewiki-20210901-pages-meta-history5.xml-p6334568p6428998.7z.txt2021-09-04 13:42 94
[TXT]md5sums-dewiki-20210901-pages-meta-history5.xml-p6334568p6428998.bz2.txt2021-09-04 04:13 95
[TXT]md5sums-dewiki-20210901-pages-meta-history5.xml-p6428999p6522987.7z.txt2021-09-04 13:42 94
[TXT]md5sums-dewiki-20210901-pages-meta-history5.xml-p6428999p6522987.bz2.txt2021-09-04 04:14 95
[TXT]md5sums-dewiki-20210901-pages-meta-history5.xml-p6522988p6529934.7z.txt2021-09-04 13:43 94
[TXT]md5sums-dewiki-20210901-pages-meta-history5.xml-p6522988p6529934.bz2.txt2021-09-04 04:16 95
[TXT]md5sums-dewiki-20210901-pages-meta-history5.xml-p6529935p6612030.7z.txt2021-09-04 13:43 94
[TXT]md5sums-dewiki-20210901-pages-meta-history5.xml-p6529935p6612030.bz2.txt2021-09-04 04:19 95
[TXT]md5sums-dewiki-20210901-pages-meta-history5.xml-p6612031p6678847.7z.txt2021-09-04 13:43 94
[TXT]md5sums-dewiki-20210901-pages-meta-history5.xml-p6612031p6678847.bz2.txt2021-09-04 04:22 95
[TXT]md5sums-dewiki-20210901-pages-meta-history5.xml-p6678848p6746983.7z.txt2021-09-04 13:43 94
[TXT]md5sums-dewiki-20210901-pages-meta-history5.xml-p6678848p6746983.bz2.txt2021-09-04 04:24 95
[TXT]md5sums-dewiki-20210901-pages-meta-history5.xml-p6746984p6862381.7z.txt2021-09-04 13:43 94
[TXT]md5sums-dewiki-20210901-pages-meta-history5.xml-p6746984p6862381.bz2.txt2021-09-04 04:25 95
[TXT]md5sums-dewiki-20210901-pages-meta-history5.xml-p6862382p6974528.7z.txt2021-09-04 13:43 94
[TXT]md5sums-dewiki-20210901-pages-meta-history5.xml-p6862382p6974528.bz2.txt2021-09-04 04:27 95
[TXT]md5sums-dewiki-20210901-pages-meta-history5.xml-p6974529p7044664.7z.txt2021-09-04 13:43 94
[TXT]md5sums-dewiki-20210901-pages-meta-history5.xml-p6974529p7044664.bz2.txt2021-09-04 04:28 95
[TXT]md5sums-dewiki-20210901-pages-meta-history5.xml-p7044665p7076412.7z.txt2021-09-04 13:44 94
[TXT]md5sums-dewiki-20210901-pages-meta-history5.xml-p7044665p7076412.bz2.txt2021-09-04 04:31 95
[TXT]md5sums-dewiki-20210901-pages-meta-history5.xml-p7076413p7165977.7z.txt2021-09-04 13:44 94
[TXT]md5sums-dewiki-20210901-pages-meta-history5.xml-p7076413p7165977.bz2.txt2021-09-04 04:34 95
[TXT]md5sums-dewiki-20210901-pages-meta-history5.xml-p7165978p7378048.7z.txt2021-09-04 13:44 94
[TXT]md5sums-dewiki-20210901-pages-meta-history5.xml-p7165978p7378048.bz2.txt2021-09-04 04:34 95
[TXT]md5sums-dewiki-20210901-pages-meta-history5.xml-p7378049p7515519.7z.txt2021-09-04 13:44 94
[TXT]md5sums-dewiki-20210901-pages-meta-history5.xml-p7378049p7515519.bz2.txt2021-09-04 04:35 95
[TXT]md5sums-dewiki-20210901-pages-meta-history5.xml-p7515520p7640644.7z.txt2021-09-04 13:44 94
[TXT]md5sums-dewiki-20210901-pages-meta-history5.xml-p7515520p7640644.bz2.txt2021-09-04 04:36 95
[TXT]md5sums-dewiki-20210901-pages-meta-history5.xml-p7640645p7755757.7z.txt2021-09-04 13:44 94
[TXT]md5sums-dewiki-20210901-pages-meta-history5.xml-p7640645p7755757.bz2.txt2021-09-04 04:38 95
[TXT]md5sums-dewiki-20210901-pages-meta-history5.xml-p7755758p7887021.7z.txt2021-09-04 13:45 94
[TXT]md5sums-dewiki-20210901-pages-meta-history5.xml-p7755758p7887021.bz2.txt2021-09-04 04:39 95
[TXT]md5sums-dewiki-20210901-pages-meta-history5.xml-p7887022p8025060.7z.txt2021-09-04 13:45 94
[TXT]md5sums-dewiki-20210901-pages-meta-history5.xml-p7887022p8025060.bz2.txt2021-09-04 04:40 95
[TXT]md5sums-dewiki-20210901-pages-meta-history5.xml-p8025061p8135169.7z.txt2021-09-04 13:45 94
[TXT]md5sums-dewiki-20210901-pages-meta-history5.xml-p8025061p8135169.bz2.txt2021-09-04 04:41 95
[TXT]md5sums-dewiki-20210901-pages-meta-history5.xml-p8135170p8269241.7z.txt2021-09-04 13:45 94
[TXT]md5sums-dewiki-20210901-pages-meta-history5.xml-p8135170p8269241.bz2.txt2021-09-04 04:43 95
[TXT]md5sums-dewiki-20210901-pages-meta-history5.xml-p8269242p8401958.7z.txt2021-09-04 13:45 94
[TXT]md5sums-dewiki-20210901-pages-meta-history5.xml-p8269242p8401958.bz2.txt2021-09-04 04:44 95
[TXT]md5sums-dewiki-20210901-pages-meta-history5.xml-p8401959p8531911.7z.txt2021-09-04 13:45 94
[TXT]md5sums-dewiki-20210901-pages-meta-history5.xml-p8401959p8531911.bz2.txt2021-09-04 04:45 95
[TXT]md5sums-dewiki-20210901-pages-meta-history5.xml-p8531912p8736760.7z.txt2021-09-04 13:46 94
[TXT]md5sums-dewiki-20210901-pages-meta-history5.xml-p8531912p8736760.bz2.txt2021-09-04 04:46 95
[TXT]md5sums-dewiki-20210901-pages-meta-history5.xml-p8736761p8890899.7z.txt2021-09-04 13:46 94
[TXT]md5sums-dewiki-20210901-pages-meta-history5.xml-p8736761p8890899.bz2.txt2021-09-04 04:47 95
[TXT]md5sums-dewiki-20210901-pages-meta-history5.xml-p8890900p9013523.7z.txt2021-09-04 13:46 94
[TXT]md5sums-dewiki-20210901-pages-meta-history5.xml-p8890900p9013523.bz2.txt2021-09-04 04:48 95
[TXT]md5sums-dewiki-20210901-pages-meta-history5.xml-p9013524p9082351.7z.txt2021-09-04 13:46 94
[TXT]md5sums-dewiki-20210901-pages-meta-history5.xml-p9013524p9082351.bz2.txt2021-09-04 04:52 95
[TXT]md5sums-dewiki-20210901-pages-meta-history5.xml-p9082352p9197175.7z.txt2021-09-04 13:46 94
[TXT]md5sums-dewiki-20210901-pages-meta-history5.xml-p9082352p9197175.bz2.txt2021-09-04 04:56 95
[TXT]md5sums-dewiki-20210901-pages-meta-history5.xml-p9197176p9261244.7z.txt2021-09-04 13:47 94
[TXT]md5sums-dewiki-20210901-pages-meta-history5.xml-p9197176p9261244.bz2.txt2021-09-04 04:56 95
[TXT]md5sums-dewiki-20210901-pages-meta-history6.xml-p9261245p9461376.7z.txt2021-09-04 13:47 94
[TXT]md5sums-dewiki-20210901-pages-meta-history6.xml-p9261245p9461376.bz2.txt2021-09-04 04:57 95
[TXT]md5sums-dewiki-20210901-pages-meta-history6.xml-p9461377p9604470.7z.txt2021-09-04 13:47 94
[TXT]md5sums-dewiki-20210901-pages-meta-history6.xml-p9461377p9604470.bz2.txt2021-09-04 04:59 95
[TXT]md5sums-dewiki-20210901-pages-meta-history6.xml-p9604471p9665927.7z.txt2021-09-04 13:47 94
[TXT]md5sums-dewiki-20210901-pages-meta-history6.xml-p9604471p9665927.bz2.txt2021-09-04 05:00 95
[TXT]md5sums-dewiki-20210901-pages-meta-history6.xml-p9665928p9740706.7z.txt2021-09-04 13:47 94
[TXT]md5sums-dewiki-20210901-pages-meta-history6.xml-p9665928p9740706.bz2.txt2021-09-04 05:01 95
[TXT]md5sums-dewiki-20210901-pages-meta-history6.xml-p9740707p9759826.7z.txt2021-09-04 13:47 94
[TXT]md5sums-dewiki-20210901-pages-meta-history6.xml-p9740707p9759826.bz2.txt2021-09-04 05:03 95
[TXT]md5sums-dewiki-20210901-pages-meta-history6.xml-p9759827p9928540.7z.txt2021-09-04 13:48 94
[TXT]md5sums-dewiki-20210901-pages-meta-history6.xml-p9759827p9928540.bz2.txt2021-09-04 05:04 95
[TXT]md5sums-dewiki-20210901-pages-meta-history6.xml-p9928541p9973220.7z.txt2021-09-04 13:48 94
[TXT]md5sums-dewiki-20210901-pages-meta-history6.xml-p9928541p9973220.bz2.txt2021-09-04 05:05 95
[TXT]md5sums-dewiki-20210901-pages-meta-history6.xml-p9973221p10070615.7z.txt2021-09-04 13:48 95
[TXT]md5sums-dewiki-20210901-pages-meta-history6.xml-p9973221p10070615.bz2.txt2021-09-04 05:06 96
[TXT]md5sums-dewiki-20210901-pages-meta-history6.xml-p10070616p10240083.7z.txt2021-09-04 13:48 96
[TXT]md5sums-dewiki-20210901-pages-meta-history6.xml-p10070616p10240083.bz2.txt2021-09-04 05:08 97
[TXT]md5sums-dewiki-20210901-pages-meta-history6.xml-p10240084p10281910.7z.txt2021-09-04 13:48 96
[TXT]md5sums-dewiki-20210901-pages-meta-history6.xml-p10240084p10281910.bz2.txt2021-09-04 05:09 97
[TXT]md5sums-dewiki-20210901-pages-meta-history6.xml-p10281911p10453712.7z.txt2021-09-04 13:48 96
[TXT]md5sums-dewiki-20210901-pages-meta-history6.xml-p10281911p10453712.bz2.txt2021-09-04 05:10 97
[TXT]md5sums-dewiki-20210901-pages-meta-history6.xml-p10453713p10659473.7z.txt2021-09-04 13:49 96
[TXT]md5sums-dewiki-20210901-pages-meta-history6.xml-p10453713p10659473.bz2.txt2021-09-04 05:11 97
[TXT]md5sums-dewiki-20210901-pages-meta-history6.xml-p10659474p10822457.7z.txt2021-09-04 13:49 96
[TXT]md5sums-dewiki-20210901-pages-meta-history6.xml-p10659474p10822457.bz2.txt2021-09-04 05:12 97
[TXT]md5sums-dewiki-20210901-pages-meta-history6.xml-p10822458p11033599.7z.txt2021-09-04 13:49 96
[TXT]md5sums-dewiki-20210901-pages-meta-history6.xml-p10822458p11033599.bz2.txt2021-09-04 05:13 97
[TXT]md5sums-dewiki-20210901-pages-meta-history6.xml-p11033600p11178690.7z.txt2021-09-04 13:49 96
[TXT]md5sums-dewiki-20210901-pages-meta-history6.xml-p11033600p11178690.bz2.txt2021-09-04 05:15 97
[TXT]md5sums-dewiki-20210901-pages-meta-history6.xml-p11178691p11256191.7z.txt2021-09-04 13:49 96
[TXT]md5sums-dewiki-20210901-pages-meta-history6.xml-p11178691p11256191.bz2.txt2021-09-04 05:17 97
[TXT]md5sums-dewiki-20210901-pages-meta-history6.xml-p11256192p11467469.7z.txt2021-09-04 13:50 96
[TXT]md5sums-dewiki-20210901-pages-meta-history6.xml-p11256192p11467469.bz2.txt2021-09-04 05:18 97
[TXT]md5sums-dewiki-20210901-pages-meta-history6.xml-p11467470p11617026.7z.txt2021-09-04 13:50 96
[TXT]md5sums-dewiki-20210901-pages-meta-history6.xml-p11467470p11617026.bz2.txt2021-09-04 05:19 97
[TXT]md5sums-dewiki-20210901-pages-meta-history6.xml-p11617027p11835767.7z.txt2021-09-04 13:50 96
[TXT]md5sums-dewiki-20210901-pages-meta-history6.xml-p11617027p11835767.bz2.txt2021-09-04 05:21 97
[TXT]md5sums-dewiki-20210901-pages-meta-history6.xml-p11835768p11906022.7z.txt2021-09-04 13:50 96
[TXT]md5sums-dewiki-20210901-pages-meta-history6.xml-p11835768p11906022.bz2.txt2021-09-04 05:22 97
[TXT]md5sums-dewiki-20210901-protected_titles.sql.gz.txt2021-09-01 18:51 74
[TXT]md5sums-dewiki-20210901-redirect.sql.gz.txt2021-09-01 18:52 66
[TXT]md5sums-dewiki-20210901-site_stats.sql.gz.txt2021-09-01 18:33 68
[TXT]md5sums-dewiki-20210901-siteinfo-namespaces.json.gz.txt2021-09-02 21:14 78
[TXT]md5sums-dewiki-20210901-sites.sql.gz.txt2021-09-01 20:10 63
[TXT]md5sums-dewiki-20210901-stub-articles.xml.gz.txt2021-09-01 18:31 71
[TXT]md5sums-dewiki-20210901-stub-articles1.xml.gz.txt2021-09-01 18:17 72
[TXT]md5sums-dewiki-20210901-stub-articles2.xml.gz.txt2021-09-01 18:17 72
[TXT]md5sums-dewiki-20210901-stub-articles3.xml.gz.txt2021-09-01 18:17 72
[TXT]md5sums-dewiki-20210901-stub-articles4.xml.gz.txt2021-09-01 18:17 72
[TXT]md5sums-dewiki-20210901-stub-articles5.xml.gz.txt2021-09-01 18:17 72
[TXT]md5sums-dewiki-20210901-stub-articles6.xml.gz.txt2021-09-01 18:17 72
[TXT]md5sums-dewiki-20210901-stub-meta-current.xml.gz.txt2021-09-01 18:31 75
[TXT]md5sums-dewiki-20210901-stub-meta-current1.xml.gz.txt2021-09-01 18:16 76
[TXT]md5sums-dewiki-20210901-stub-meta-current2.xml.gz.txt2021-09-01 18:16 76
[TXT]md5sums-dewiki-20210901-stub-meta-current3.xml.gz.txt2021-09-01 18:16 76
[TXT]md5sums-dewiki-20210901-stub-meta-current4.xml.gz.txt2021-09-01 18:16 76
[TXT]md5sums-dewiki-20210901-stub-meta-current5.xml.gz.txt2021-09-01 18:16 76
[TXT]md5sums-dewiki-20210901-stub-meta-current6.xml.gz.txt2021-09-01 18:16 76
[TXT]md5sums-dewiki-20210901-stub-meta-history.xml.gz.txt2021-09-01 18:28 75
[TXT]md5sums-dewiki-20210901-stub-meta-history1.xml.gz.txt2021-09-01 18:10 76
[TXT]md5sums-dewiki-20210901-stub-meta-history2.xml.gz.txt2021-09-01 18:11 76
[TXT]md5sums-dewiki-20210901-stub-meta-history3.xml.gz.txt2021-09-01 18:12 76
[TXT]md5sums-dewiki-20210901-stub-meta-history4.xml.gz.txt2021-09-01 18:13 76
[TXT]md5sums-dewiki-20210901-stub-meta-history5.xml.gz.txt2021-09-01 18:14 76
[TXT]md5sums-dewiki-20210901-stub-meta-history6.xml.gz.txt2021-09-01 18:16 76
[TXT]md5sums-dewiki-20210901-templatelinks.sql.gz.txt2021-09-01 18:43 71
[TXT]md5sums-dewiki-20210901-user_former_groups.sql.gz.txt2021-09-01 18:48 76
[TXT]md5sums-dewiki-20210901-user_groups.sql.gz.txt2021-09-01 18:48 69
[TXT]md5sums-dewiki-20210901-wbc_entity_usage.sql.gz.txt2021-09-01 20:11 74
[   ]pagerangeinfo.json2021-09-03 02:36 4.8K
[   ]report.json2021-09-04 13:51 69K
[TXT]sha1sums-dewiki-20210901-abstract.xml.gz.txt2021-09-03 02:09 74
[TXT]sha1sums-dewiki-20210901-abstract1.xml.gz.txt2021-09-03 02:09 75
[TXT]sha1sums-dewiki-20210901-abstract2.xml.gz.txt2021-09-03 02:09 75
[TXT]sha1sums-dewiki-20210901-abstract3.xml.gz.txt2021-09-03 02:09 75
[TXT]sha1sums-dewiki-20210901-abstract4.xml.gz.txt2021-09-03 02:09 75
[TXT]sha1sums-dewiki-20210901-abstract5.xml.gz.txt2021-09-03 02:09 75
[TXT]sha1sums-dewiki-20210901-abstract6.xml.gz.txt2021-09-03 02:09 75
[TXT]sha1sums-dewiki-20210901-all-titles-in-ns0.gz.txt2021-09-02 21:15 79
[TXT]sha1sums-dewiki-20210901-all-titles.gz.txt2021-09-02 21:15 72
[TXT]sha1sums-dewiki-20210901-babel.sql.gz.txt2021-09-01 20:11 71
[TXT]sha1sums-dewiki-20210901-category.sql.gz.txt2021-09-01 18:48 74
[TXT]sha1sums-dewiki-20210901-categorylinks.sql.gz.txt2021-09-01 18:40 79
[TXT]sha1sums-dewiki-20210901-change_tag.sql.gz.txt2021-09-01 18:53 76
[TXT]sha1sums-dewiki-20210901-change_tag_def.sql.gz.txt2021-09-01 18:54 80
[TXT]sha1sums-dewiki-20210901-externallinks.sql.gz.txt2021-09-01 18:46 79
[TXT]sha1sums-dewiki-20210901-flaggedimages.sql.gz.txt2021-09-01 19:36 79
[TXT]sha1sums-dewiki-20210901-flaggedpage_config.sql.gz.txt2021-09-01 19:36 84
[TXT]sha1sums-dewiki-20210901-flaggedpage_pending.sql.gz.txt2021-09-01 19:36 85
[TXT]sha1sums-dewiki-20210901-flaggedpages.sql.gz.txt2021-09-01 18:54 78
[TXT]sha1sums-dewiki-20210901-flaggedrevs.sql.gz.txt2021-09-01 19:00 77
[TXT]sha1sums-dewiki-20210901-flaggedrevs_promote.sql.gz.txt2021-09-01 19:37 85
[TXT]sha1sums-dewiki-20210901-flaggedrevs_statistics.sql.gz.txt2021-09-01 19:37 88
[TXT]sha1sums-dewiki-20210901-flaggedrevs_tracking.sql.gz.txt2021-09-01 19:37 86
[TXT]sha1sums-dewiki-20210901-flaggedtemplates.sql.gz.txt2021-09-01 20:10 82
[TXT]sha1sums-dewiki-20210901-geo_tags.sql.gz.txt2021-09-01 18:52 74
[TXT]sha1sums-dewiki-20210901-image.sql.gz.txt2021-09-01 18:33 71
[TXT]sha1sums-dewiki-20210901-imagelinks.sql.gz.txt2021-09-01 18:41 76
[TXT]sha1sums-dewiki-20210901-iwlinks.sql.gz.txt2021-09-01 18:52 73
[TXT]sha1sums-dewiki-20210901-langlinks.sql.gz.txt2021-09-01 18:47 75
[TXT]sha1sums-dewiki-20210901-page.sql.gz.txt2021-09-01 18:50 70
[TXT]sha1sums-dewiki-20210901-page_props.sql.gz.txt2021-09-01 18:51 76
[TXT]sha1sums-dewiki-20210901-page_restrictions.sql.gz.txt2021-09-01 18:50 83
[TXT]sha1sums-dewiki-20210901-pagelinks.sql.gz.txt2021-09-01 18:39 75
[TXT]sha1sums-dewiki-20210901-pages-articles-multistream-index.txt.bz2.txt2021-09-02 03:56 99
[TXT]sha1sums-dewiki-20210901-pages-articles-multistream-index1.txt-p1p297012.bz2.txt2021-09-02 03:45 110
[TXT]sha1sums-dewiki-20210901-pages-articles-multistream-index2.txt-p297013p1262093.bz2.txt2021-09-02 03:46 116
[TXT]sha1sums-dewiki-20210901-pages-articles-multistream-index3.txt-p1262094p2762093.bz2.txt2021-09-02 03:46 117
[TXT]sha1sums-dewiki-20210901-pages-articles-multistream-index3.txt-p2762094p3376257.bz2.txt2021-09-02 03:46 117
[TXT]sha1sums-dewiki-20210901-pages-articles-multistream-index4.txt-p3376258p4876257.bz2.txt2021-09-02 03:47 117
[TXT]sha1sums-dewiki-20210901-pages-articles-multistream-index4.txt-p4876258p6115464.bz2.txt2021-09-02 03:47 117
[TXT]sha1sums-dewiki-20210901-pages-articles-multistream-index5.txt-p6115465p7615464.bz2.txt2021-09-02 03:47 117
[TXT]sha1sums-dewiki-20210901-pages-articles-multistream-index5.txt-p7615465p9115464.bz2.txt2021-09-02 03:48 117
[TXT]sha1sums-dewiki-20210901-pages-articles-multistream-index5.txt-p9115465p9261244.bz2.txt2021-09-02 03:48 117
[TXT]sha1sums-dewiki-20210901-pages-articles-multistream-index6.txt-p9261245p10761244.bz2.txt2021-09-02 03:48 118
[TXT]sha1sums-dewiki-20210901-pages-articles-multistream-index6.txt-p10761245p11906021.bz2.txt2021-09-02 03:48 119
[TXT]sha1sums-dewiki-20210901-pages-articles-multistream.xml.bz2.txt2021-09-02 03:56 93
[TXT]sha1sums-dewiki-20210901-pages-articles-multistream1.xml-p1p297012.bz2.txt2021-09-02 03:45 104
[TXT]sha1sums-dewiki-20210901-pages-articles-multistream2.xml-p297013p1262093.bz2.txt2021-09-02 03:46 110
[TXT]sha1sums-dewiki-20210901-pages-articles-multistream3.xml-p1262094p2762093.bz2.txt2021-09-02 03:46 111
[TXT]sha1sums-dewiki-20210901-pages-articles-multistream3.xml-p2762094p3376257.bz2.txt2021-09-02 03:46 111
[TXT]sha1sums-dewiki-20210901-pages-articles-multistream4.xml-p3376258p4876257.bz2.txt2021-09-02 03:47 111
[TXT]sha1sums-dewiki-20210901-pages-articles-multistream4.xml-p4876258p6115464.bz2.txt2021-09-02 03:47 111
[TXT]sha1sums-dewiki-20210901-pages-articles-multistream5.xml-p6115465p7615464.bz2.txt2021-09-02 03:47 111
[TXT]sha1sums-dewiki-20210901-pages-articles-multistream5.xml-p7615465p9115464.bz2.txt2021-09-02 03:48 111
[TXT]sha1sums-dewiki-20210901-pages-articles-multistream5.xml-p9115465p9261244.bz2.txt2021-09-02 03:48 111
[TXT]sha1sums-dewiki-20210901-pages-articles-multistream6.xml-p9261245p10761244.bz2.txt2021-09-02 03:48 112
[TXT]sha1sums-dewiki-20210901-pages-articles-multistream6.xml-p10761245p11906021.bz2.txt2021-09-02 03:48 113
[TXT]sha1sums-dewiki-20210901-pages-articles.xml.bz2.txt2021-09-01 22:46 81
[TXT]sha1sums-dewiki-20210901-pages-articles1.xml-p1p297012.bz2.txt2021-09-01 22:09 92
[TXT]sha1sums-dewiki-20210901-pages-articles2.xml-p297013p1262093.bz2.txt2021-09-01 22:09 98
[TXT]sha1sums-dewiki-20210901-pages-articles3.xml-p1262094p2762093.bz2.txt2021-09-01 22:09 99
[TXT]sha1sums-dewiki-20210901-pages-articles3.xml-p2762094p3376257.bz2.txt2021-09-01 22:09 99
[TXT]sha1sums-dewiki-20210901-pages-articles4.xml-p3376258p4876257.bz2.txt2021-09-01 22:10 99
[TXT]sha1sums-dewiki-20210901-pages-articles4.xml-p4876258p6115464.bz2.txt2021-09-01 22:10 99
[TXT]sha1sums-dewiki-20210901-pages-articles5.xml-p6115465p7615464.bz2.txt2021-09-01 22:10 99
[TXT]sha1sums-dewiki-20210901-pages-articles5.xml-p7615465p9115464.bz2.txt2021-09-01 22:11 99
[TXT]sha1sums-dewiki-20210901-pages-articles5.xml-p9115465p9261244.bz2.txt2021-09-01 22:11 99
[TXT]sha1sums-dewiki-20210901-pages-articles6.xml-p9261245p10761244.bz2.txt2021-09-01 22:11 100
[TXT]sha1sums-dewiki-20210901-pages-articles6.xml-p10761245p11906021.bz2.txt2021-09-01 22:11 101
[TXT]sha1sums-dewiki-20210901-pages-logging.xml.gz.txt2021-09-03 02:22 79
[TXT]sha1sums-dewiki-20210901-pages-logging1.xml.gz.txt2021-09-03 02:20 80
[TXT]sha1sums-dewiki-20210901-pages-logging2.xml.gz.txt2021-09-03 02:20 80
[TXT]sha1sums-dewiki-20210901-pages-logging3.xml.gz.txt2021-09-03 02:20 80
[TXT]sha1sums-dewiki-20210901-pages-logging4.xml.gz.txt2021-09-03 02:20 80
[TXT]sha1sums-dewiki-20210901-pages-logging5.xml.gz.txt2021-09-03 02:21 80
[TXT]sha1sums-dewiki-20210901-pages-logging6.xml.gz.txt2021-09-03 02:21 80
[TXT]sha1sums-dewiki-20210901-pages-meta-current.xml.bz2.txt2021-09-02 11:50 85
[TXT]sha1sums-dewiki-20210901-pages-meta-current1.xml-p1p297012.bz2.txt2021-09-02 10:51 96
[TXT]sha1sums-dewiki-20210901-pages-meta-current2.xml-p297013p1262093.bz2.txt2021-09-02 10:52 102
[TXT]sha1sums-dewiki-20210901-pages-meta-current3.xml-p1262094p2762093.bz2.txt2021-09-02 10:52 103
[TXT]sha1sums-dewiki-20210901-pages-meta-current3.xml-p2762094p3376257.bz2.txt2021-09-02 10:52 103
[TXT]sha1sums-dewiki-20210901-pages-meta-current4.xml-p3376258p4876257.bz2.txt2021-09-02 10:53 103
[TXT]sha1sums-dewiki-20210901-pages-meta-current4.xml-p4876258p6115464.bz2.txt2021-09-02 10:53 103
[TXT]sha1sums-dewiki-20210901-pages-meta-current5.xml-p6115465p7615464.bz2.txt2021-09-02 10:54 103
[TXT]sha1sums-dewiki-20210901-pages-meta-current5.xml-p7615465p9115464.bz2.txt2021-09-02 10:55 103
[TXT]sha1sums-dewiki-20210901-pages-meta-current5.xml-p9115465p9261244.bz2.txt2021-09-02 10:55 103
[TXT]sha1sums-dewiki-20210901-pages-meta-current6.xml-p9261245p10761244.bz2.txt2021-09-02 10:55 104
[TXT]sha1sums-dewiki-20210901-pages-meta-current6.xml-p10761245p11906022.bz2.txt2021-09-02 10:56 105
[TXT]sha1sums-dewiki-20210901-pages-meta-history1.xml-p1p1598.7z.txt2021-09-04 13:29 93
[TXT]sha1sums-dewiki-20210901-pages-meta-history1.xml-p1p1598.bz2.txt2021-09-04 02:19 94
[TXT]sha1sums-dewiki-20210901-pages-meta-history1.xml-p1599p3235.7z.txt2021-09-04 13:29 96
[TXT]sha1sums-dewiki-20210901-pages-meta-history1.xml-p1599p3235.bz2.txt2021-09-04 02:20 97
[TXT]sha1sums-dewiki-20210901-pages-meta-history1.xml-p3236p5184.7z.txt2021-09-04 13:29 96
[TXT]sha1sums-dewiki-20210901-pages-meta-history1.xml-p3236p5184.bz2.txt2021-09-04 02:22 97
[TXT]sha1sums-dewiki-20210901-pages-meta-history1.xml-p5185p6214.7z.txt2021-09-04 13:29 96
[TXT]sha1sums-dewiki-20210901-pages-meta-history1.xml-p5185p6214.bz2.txt2021-09-04 02:23 97
[TXT]sha1sums-dewiki-20210901-pages-meta-history1.xml-p6215p9226.7z.txt2021-09-04 13:29 96
[TXT]sha1sums-dewiki-20210901-pages-meta-history1.xml-p6215p9226.bz2.txt2021-09-04 02:24 97
[TXT]sha1sums-dewiki-20210901-pages-meta-history1.xml-p9227p12066.7z.txt2021-09-04 13:29 97
[TXT]sha1sums-dewiki-20210901-pages-meta-history1.xml-p9227p12066.bz2.txt2021-09-04 02:25 98
[TXT]sha1sums-dewiki-20210901-pages-meta-history1.xml-p12067p15215.7z.txt2021-09-04 13:29 98
[TXT]sha1sums-dewiki-20210901-pages-meta-history1.xml-p12067p15215.bz2.txt2021-09-04 02:27 99
[TXT]sha1sums-dewiki-20210901-pages-meta-history1.xml-p15216p18322.7z.txt2021-09-04 13:29 98
[TXT]sha1sums-dewiki-20210901-pages-meta-history1.xml-p15216p18322.bz2.txt2021-09-04 02:28 99
[TXT]sha1sums-dewiki-20210901-pages-meta-history1.xml-p18323p22889.7z.txt2021-09-04 13:29 98
[TXT]sha1sums-dewiki-20210901-pages-meta-history1.xml-p18323p22889.bz2.txt2021-09-04 02:30 99
[TXT]sha1sums-dewiki-20210901-pages-meta-history1.xml-p22890p29827.7z.txt2021-09-04 13:29 98
[TXT]sha1sums-dewiki-20210901-pages-meta-history1.xml-p22890p29827.bz2.txt2021-09-04 02:31 99
[TXT]sha1sums-dewiki-20210901-pages-meta-history1.xml-p29828p34615.7z.txt2021-09-04 13:30 98
[TXT]sha1sums-dewiki-20210901-pages-meta-history1.xml-p29828p34615.bz2.txt2021-09-04 02:33 99
[TXT]sha1sums-dewiki-20210901-pages-meta-history1.xml-p34616p42626.7z.txt2021-09-04 13:30 98
[TXT]sha1sums-dewiki-20210901-pages-meta-history1.xml-p34616p42626.bz2.txt2021-09-04 02:34 99
[TXT]sha1sums-dewiki-20210901-pages-meta-history1.xml-p42627p50748.7z.txt2021-09-04 13:30 98
[TXT]sha1sums-dewiki-20210901-pages-meta-history1.xml-p42627p50748.bz2.txt2021-09-04 02:35 99
[TXT]sha1sums-dewiki-20210901-pages-meta-history1.xml-p50749p59095.7z.txt2021-09-04 13:30 98
[TXT]sha1sums-dewiki-20210901-pages-meta-history1.xml-p50749p59095.bz2.txt2021-09-04 02:37 99
[TXT]sha1sums-dewiki-20210901-pages-meta-history1.xml-p59096p70665.7z.txt2021-09-04 13:30 98
[TXT]sha1sums-dewiki-20210901-pages-meta-history1.xml-p59096p70665.bz2.txt2021-09-04 02:38 99
[TXT]sha1sums-dewiki-20210901-pages-meta-history1.xml-p70666p80296.7z.txt2021-09-04 13:30 98
[TXT]sha1sums-dewiki-20210901-pages-meta-history1.xml-p70666p80296.bz2.txt2021-09-04 02:39 99
[TXT]sha1sums-dewiki-20210901-pages-meta-history1.xml-p80297p93674.7z.txt2021-09-04 13:30 98
[TXT]sha1sums-dewiki-20210901-pages-meta-history1.xml-p80297p93674.bz2.txt2021-09-04 02:40 99
[TXT]sha1sums-dewiki-20210901-pages-meta-history1.xml-p93675p106386.7z.txt2021-09-04 13:30 99
[TXT]sha1sums-dewiki-20210901-pages-meta-history1.xml-p93675p106386.bz2.txt2021-09-04 02:42 100
[TXT]sha1sums-dewiki-20210901-pages-meta-history1.xml-p106387p121624.7z.txt2021-09-04 13:30 100
[TXT]sha1sums-dewiki-20210901-pages-meta-history1.xml-p106387p121624.bz2.txt2021-09-04 02:43 101
[TXT]sha1sums-dewiki-20210901-pages-meta-history1.xml-p121625p136260.7z.txt2021-09-04 13:31 100
[TXT]sha1sums-dewiki-20210901-pages-meta-history1.xml-p121625p136260.bz2.txt2021-09-04 02:44 101
[TXT]sha1sums-dewiki-20210901-pages-meta-history1.xml-p136261p152353.7z.txt2021-09-04 13:31 100
[TXT]sha1sums-dewiki-20210901-pages-meta-history1.xml-p136261p152353.bz2.txt2021-09-04 02:45 101
[TXT]sha1sums-dewiki-20210901-pages-meta-history1.xml-p152354p169188.7z.txt2021-09-04 13:31 100
[TXT]sha1sums-dewiki-20210901-pages-meta-history1.xml-p152354p169188.bz2.txt2021-09-04 02:45 101
[TXT]sha1sums-dewiki-20210901-pages-meta-history1.xml-p169189p187660.7z.txt2021-09-04 13:31 100
[TXT]sha1sums-dewiki-20210901-pages-meta-history1.xml-p169189p187660.bz2.txt2021-09-04 02:47 101
[TXT]sha1sums-dewiki-20210901-pages-meta-history1.xml-p187661p207812.7z.txt2021-09-04 13:31 100
[TXT]sha1sums-dewiki-20210901-pages-meta-history1.xml-p187661p207812.bz2.txt2021-09-04 02:48 101
[TXT]sha1sums-dewiki-20210901-pages-meta-history1.xml-p207813p229473.7z.txt2021-09-04 13:31 100
[TXT]sha1sums-dewiki-20210901-pages-meta-history1.xml-p207813p229473.bz2.txt2021-09-04 02:49 101
[TXT]sha1sums-dewiki-20210901-pages-meta-history1.xml-p229474p254168.7z.txt2021-09-04 13:31 100
[TXT]sha1sums-dewiki-20210901-pages-meta-history1.xml-p229474p254168.bz2.txt2021-09-04 02:49 101
[TXT]sha1sums-dewiki-20210901-pages-meta-history1.xml-p254169p276974.7z.txt2021-09-04 13:31 100
[TXT]sha1sums-dewiki-20210901-pages-meta-history1.xml-p254169p276974.bz2.txt2021-09-04 02:51 101
[TXT]sha1sums-dewiki-20210901-pages-meta-history1.xml-p276975p297012.7z.txt2021-09-04 13:32 100
[TXT]sha1sums-dewiki-20210901-pages-meta-history1.xml-p276975p297012.bz2.txt2021-09-04 02:51 101
[TXT]sha1sums-dewiki-20210901-pages-meta-history2.xml-p297013p323551.7z.txt2021-09-04 13:32 100
[TXT]sha1sums-dewiki-20210901-pages-meta-history2.xml-p297013p323551.bz2.txt2021-09-04 02:52 101
[TXT]sha1sums-dewiki-20210901-pages-meta-history2.xml-p323552p350617.7z.txt2021-09-04 13:32 100
[TXT]sha1sums-dewiki-20210901-pages-meta-history2.xml-p323552p350617.bz2.txt2021-09-04 02:53 101
[TXT]sha1sums-dewiki-20210901-pages-meta-history2.xml-p350618p380725.7z.txt2021-09-04 13:32 100
[TXT]sha1sums-dewiki-20210901-pages-meta-history2.xml-p350618p380725.bz2.txt2021-09-04 02:54 101
[TXT]sha1sums-dewiki-20210901-pages-meta-history2.xml-p380726p413119.7z.txt2021-09-04 13:32 100
[TXT]sha1sums-dewiki-20210901-pages-meta-history2.xml-p380726p413119.bz2.txt2021-09-04 02:55 101
[TXT]sha1sums-dewiki-20210901-pages-meta-history2.xml-p413120p445557.7z.txt2021-09-04 13:32 100
[TXT]sha1sums-dewiki-20210901-pages-meta-history2.xml-p413120p445557.bz2.txt2021-09-04 02:55 101
[TXT]sha1sums-dewiki-20210901-pages-meta-history2.xml-p445558p474265.7z.txt2021-09-04 13:32 100
[TXT]sha1sums-dewiki-20210901-pages-meta-history2.xml-p445558p474265.bz2.txt2021-09-04 02:56 101
[TXT]sha1sums-dewiki-20210901-pages-meta-history2.xml-p474266p504391.7z.txt2021-09-04 13:32 100
[TXT]sha1sums-dewiki-20210901-pages-meta-history2.xml-p474266p504391.bz2.txt2021-09-04 02:57 101
[TXT]sha1sums-dewiki-20210901-pages-meta-history2.xml-p504392p544496.7z.txt2021-09-04 13:32 100
[TXT]sha1sums-dewiki-20210901-pages-meta-history2.xml-p504392p544496.bz2.txt2021-09-04 02:57 101
[TXT]sha1sums-dewiki-20210901-pages-meta-history2.xml-p544497p585300.7z.txt2021-09-04 13:33 100
[TXT]sha1sums-dewiki-20210901-pages-meta-history2.xml-p544497p585300.bz2.txt2021-09-04 02:58 101
[TXT]sha1sums-dewiki-20210901-pages-meta-history2.xml-p585301p621737.7z.txt2021-09-04 13:33 100
[TXT]sha1sums-dewiki-20210901-pages-meta-history2.xml-p585301p621737.bz2.txt2021-09-04 02:59 101
[TXT]sha1sums-dewiki-20210901-pages-meta-history2.xml-p621738p666195.7z.txt2021-09-04 13:33 100
[TXT]sha1sums-dewiki-20210901-pages-meta-history2.xml-p621738p666195.bz2.txt2021-09-04 02:59 101
[TXT]sha1sums-dewiki-20210901-pages-meta-history2.xml-p666196p700110.7z.txt2021-09-04 13:33 100
[TXT]sha1sums-dewiki-20210901-pages-meta-history2.xml-p666196p700110.bz2.txt2021-09-04 03:00 101
[TXT]sha1sums-dewiki-20210901-pages-meta-history2.xml-p700111p736680.7z.txt2021-09-04 13:33 100
[TXT]sha1sums-dewiki-20210901-pages-meta-history2.xml-p700111p736680.bz2.txt2021-09-04 03:01 101
[TXT]sha1sums-dewiki-20210901-pages-meta-history2.xml-p736681p778920.7z.txt2021-09-04 13:33 100
[TXT]sha1sums-dewiki-20210901-pages-meta-history2.xml-p736681p778920.bz2.txt2021-09-04 03:02 101
[TXT]sha1sums-dewiki-20210901-pages-meta-history2.xml-p778921p821824.7z.txt2021-09-04 13:33 100
[TXT]sha1sums-dewiki-20210901-pages-meta-history2.xml-p778921p821824.bz2.txt2021-09-04 03:03 101
[TXT]sha1sums-dewiki-20210901-pages-meta-history2.xml-p821825p862671.7z.txt2021-09-04 13:33 100
[TXT]sha1sums-dewiki-20210901-pages-meta-history2.xml-p821825p862671.bz2.txt2021-09-04 03:04 101
[TXT]sha1sums-dewiki-20210901-pages-meta-history2.xml-p862672p909947.7z.txt2021-09-04 13:34 100
[TXT]sha1sums-dewiki-20210901-pages-meta-history2.xml-p862672p909947.bz2.txt2021-09-04 03:05 101
[TXT]sha1sums-dewiki-20210901-pages-meta-history2.xml-p909948p962981.7z.txt2021-09-04 13:34 100
[TXT]sha1sums-dewiki-20210901-pages-meta-history2.xml-p909948p962981.bz2.txt2021-09-04 03:05 101
[TXT]sha1sums-dewiki-20210901-pages-meta-history2.xml-p962982p1010267.7z.txt2021-09-04 13:34 101
[TXT]sha1sums-dewiki-20210901-pages-meta-history2.xml-p962982p1010267.bz2.txt2021-09-04 03:06 102
[TXT]sha1sums-dewiki-20210901-pages-meta-history2.xml-p1010268p1061465.7z.txt2021-09-04 13:34 102
[TXT]sha1sums-dewiki-20210901-pages-meta-history2.xml-p1010268p1061465.bz2.txt2021-09-04 03:07 103
[TXT]sha1sums-dewiki-20210901-pages-meta-history2.xml-p1061466p1124757.7z.txt2021-09-04 13:34 102
[TXT]sha1sums-dewiki-20210901-pages-meta-history2.xml-p1061466p1124757.bz2.txt2021-09-04 03:08 103
[TXT]sha1sums-dewiki-20210901-pages-meta-history2.xml-p1124758p1180353.7z.txt2021-09-04 13:34 102
[TXT]sha1sums-dewiki-20210901-pages-meta-history2.xml-p1124758p1180353.bz2.txt2021-09-04 03:09 103
[TXT]sha1sums-dewiki-20210901-pages-meta-history2.xml-p1180354p1238709.7z.txt2021-09-04 13:34 102
[TXT]sha1sums-dewiki-20210901-pages-meta-history2.xml-p1180354p1238709.bz2.txt2021-09-04 03:10 103
[TXT]sha1sums-dewiki-20210901-pages-meta-history2.xml-p1238710p1262093.7z.txt2021-09-04 13:34 102
[TXT]sha1sums-dewiki-20210901-pages-meta-history2.xml-p1238710p1262093.bz2.txt2021-09-04 03:10 103
[TXT]sha1sums-dewiki-20210901-pages-meta-history3.xml-p1262094p1322217.7z.txt2021-09-04 13:34 102
[TXT]sha1sums-dewiki-20210901-pages-meta-history3.xml-p1262094p1322217.bz2.txt2021-09-04 03:11 103
[TXT]sha1sums-dewiki-20210901-pages-meta-history3.xml-p1322218p1384026.7z.txt2021-09-04 13:35 102
[TXT]sha1sums-dewiki-20210901-pages-meta-history3.xml-p1322218p1384026.bz2.txt2021-09-04 03:12 103
[TXT]sha1sums-dewiki-20210901-pages-meta-history3.xml-p1384027p1447254.7z.txt2021-09-04 13:35 102
[TXT]sha1sums-dewiki-20210901-pages-meta-history3.xml-p1384027p1447254.bz2.txt2021-09-04 03:13 103
[TXT]sha1sums-dewiki-20210901-pages-meta-history3.xml-p1447255p1517633.7z.txt2021-09-04 13:35 102
[TXT]sha1sums-dewiki-20210901-pages-meta-history3.xml-p1447255p1517633.bz2.txt2021-09-04 03:14 103
[TXT]sha1sums-dewiki-20210901-pages-meta-history3.xml-p1517634p1589535.7z.txt2021-09-04 13:35 102
[TXT]sha1sums-dewiki-20210901-pages-meta-history3.xml-p1517634p1589535.bz2.txt2021-09-04 03:15 103
[TXT]sha1sums-dewiki-20210901-pages-meta-history3.xml-p1589536p1659386.7z.txt2021-09-04 13:35 102
[TXT]sha1sums-dewiki-20210901-pages-meta-history3.xml-p1589536p1659386.bz2.txt2021-09-04 03:16 103
[TXT]sha1sums-dewiki-20210901-pages-meta-history3.xml-p1659387p1727378.7z.txt2021-09-04 13:35 102
[TXT]sha1sums-dewiki-20210901-pages-meta-history3.xml-p1659387p1727378.bz2.txt2021-09-04 03:17 103
[TXT]sha1sums-dewiki-20210901-pages-meta-history3.xml-p1727379p1800666.7z.txt2021-09-04 13:36 102
[TXT]sha1sums-dewiki-20210901-pages-meta-history3.xml-p1727379p1800666.bz2.txt2021-09-04 03:17 103
[TXT]sha1sums-dewiki-20210901-pages-meta-history3.xml-p1800667p1880464.7z.txt2021-09-04 13:36 102
[TXT]sha1sums-dewiki-20210901-pages-meta-history3.xml-p1800667p1880464.bz2.txt2021-09-04 03:18 103
[TXT]sha1sums-dewiki-20210901-pages-meta-history3.xml-p1880465p1965901.7z.txt2021-09-04 13:36 102
[TXT]sha1sums-dewiki-20210901-pages-meta-history3.xml-p1880465p1965901.bz2.txt2021-09-04 03:19 103
[TXT]sha1sums-dewiki-20210901-pages-meta-history3.xml-p1965902p2078042.7z.txt2021-09-04 13:36 102
[TXT]sha1sums-dewiki-20210901-pages-meta-history3.xml-p1965902p2078042.bz2.txt2021-09-04 03:20 103
[TXT]sha1sums-dewiki-20210901-pages-meta-history3.xml-p2078043p2164232.7z.txt2021-09-04 13:36 102
[TXT]sha1sums-dewiki-20210901-pages-meta-history3.xml-p2078043p2164232.bz2.txt2021-09-04 03:21 103
[TXT]sha1sums-dewiki-20210901-pages-meta-history3.xml-p2164233p2266915.7z.txt2021-09-04 13:36 102
[TXT]sha1sums-dewiki-20210901-pages-meta-history3.xml-p2164233p2266915.bz2.txt2021-09-04 03:22 103
[TXT]sha1sums-dewiki-20210901-pages-meta-history3.xml-p2266916p2372689.7z.txt2021-09-04 13:36 102
[TXT]sha1sums-dewiki-20210901-pages-meta-history3.xml-p2266916p2372689.bz2.txt2021-09-04 03:23 103
[TXT]sha1sums-dewiki-20210901-pages-meta-history3.xml-p2372690p2490352.7z.txt2021-09-04 13:36 102
[TXT]sha1sums-dewiki-20210901-pages-meta-history3.xml-p2372690p2490352.bz2.txt2021-09-04 03:24 103
[TXT]sha1sums-dewiki-20210901-pages-meta-history3.xml-p2490353p2593565.7z.txt2021-09-04 13:37 102
[TXT]sha1sums-dewiki-20210901-pages-meta-history3.xml-p2490353p2593565.bz2.txt2021-09-04 03:25 103
[TXT]sha1sums-dewiki-20210901-pages-meta-history3.xml-p2593566p2692010.7z.txt2021-09-04 13:37 102
[TXT]sha1sums-dewiki-20210901-pages-meta-history3.xml-p2593566p2692010.bz2.txt2021-09-04 03:27 103
[TXT]sha1sums-dewiki-20210901-pages-meta-history3.xml-p2692011p2782091.7z.txt2021-09-04 13:37 102
[TXT]sha1sums-dewiki-20210901-pages-meta-history3.xml-p2692011p2782091.bz2.txt2021-09-04 03:28 103
[TXT]sha1sums-dewiki-20210901-pages-meta-history3.xml-p2782092p2874585.7z.txt2021-09-04 13:37 102
[TXT]sha1sums-dewiki-20210901-pages-meta-history3.xml-p2782092p2874585.bz2.txt2021-09-04 03:29 103
[TXT]sha1sums-dewiki-20210901-pages-meta-history3.xml-p2874586p2981879.7z.txt2021-09-04 13:37 102
[TXT]sha1sums-dewiki-20210901-pages-meta-history3.xml-p2874586p2981879.bz2.txt2021-09-04 03:30 103
[TXT]sha1sums-dewiki-20210901-pages-meta-history3.xml-p2981880p3081767.7z.txt2021-09-04 13:37 102
[TXT]sha1sums-dewiki-20210901-pages-meta-history3.xml-p2981880p3081767.bz2.txt2021-09-04 03:32 103
[TXT]sha1sums-dewiki-20210901-pages-meta-history3.xml-p3081768p3174685.7z.txt2021-09-04 13:38 102
[TXT]sha1sums-dewiki-20210901-pages-meta-history3.xml-p3081768p3174685.bz2.txt2021-09-04 03:34 103
[TXT]sha1sums-dewiki-20210901-pages-meta-history3.xml-p3174686p3297674.7z.txt2021-09-04 13:38 102
[TXT]sha1sums-dewiki-20210901-pages-meta-history3.xml-p3174686p3297674.bz2.txt2021-09-04 03:35 103
[TXT]sha1sums-dewiki-20210901-pages-meta-history3.xml-p3297675p3376257.7z.txt2021-09-04 13:38 102
[TXT]sha1sums-dewiki-20210901-pages-meta-history3.xml-p3297675p3376257.bz2.txt2021-09-04 03:36 103
[TXT]sha1sums-dewiki-20210901-pages-meta-history4.xml-p3376258p3478459.7z.txt2021-09-04 13:38 102
[TXT]sha1sums-dewiki-20210901-pages-meta-history4.xml-p3376258p3478459.bz2.txt2021-09-04 03:37 103
[TXT]sha1sums-dewiki-20210901-pages-meta-history4.xml-p3478460p3592765.7z.txt2021-09-04 13:38 102
[TXT]sha1sums-dewiki-20210901-pages-meta-history4.xml-p3478460p3592765.bz2.txt2021-09-04 03:38 103
[TXT]sha1sums-dewiki-20210901-pages-meta-history4.xml-p3592766p3699673.7z.txt2021-09-04 13:38 102
[TXT]sha1sums-dewiki-20210901-pages-meta-history4.xml-p3592766p3699673.bz2.txt2021-09-04 03:39 103
[TXT]sha1sums-dewiki-20210901-pages-meta-history4.xml-p3699674p3804402.7z.txt2021-09-04 13:38 102
[TXT]sha1sums-dewiki-20210901-pages-meta-history4.xml-p3699674p3804402.bz2.txt2021-09-04 03:40 103
[TXT]sha1sums-dewiki-20210901-pages-meta-history4.xml-p3804403p3910701.7z.txt2021-09-04 13:39 102
[TXT]sha1sums-dewiki-20210901-pages-meta-history4.xml-p3804403p3910701.bz2.txt2021-09-04 03:41 103
[TXT]sha1sums-dewiki-20210901-pages-meta-history4.xml-p3910702p4036723.7z.txt2021-09-04 13:39 102
[TXT]sha1sums-dewiki-20210901-pages-meta-history4.xml-p3910702p4036723.bz2.txt2021-09-04 03:42 103
[TXT]sha1sums-dewiki-20210901-pages-meta-history4.xml-p4036724p4146875.7z.txt2021-09-04 13:39 102
[TXT]sha1sums-dewiki-20210901-pages-meta-history4.xml-p4036724p4146875.bz2.txt2021-09-04 03:43 103
[TXT]sha1sums-dewiki-20210901-pages-meta-history4.xml-p4146876p4263179.7z.txt2021-09-04 13:39 102
[TXT]sha1sums-dewiki-20210901-pages-meta-history4.xml-p4146876p4263179.bz2.txt2021-09-04 03:45 103
[TXT]sha1sums-dewiki-20210901-pages-meta-history4.xml-p4263180p4330245.7z.txt2021-09-04 13:39 102
[TXT]sha1sums-dewiki-20210901-pages-meta-history4.xml-p4263180p4330245.bz2.txt2021-09-04 03:46 103
[TXT]sha1sums-dewiki-20210901-pages-meta-history4.xml-p4330246p4390177.7z.txt2021-09-04 13:39 102
[TXT]sha1sums-dewiki-20210901-pages-meta-history4.xml-p4330246p4390177.bz2.txt2021-09-04 03:48 103
[TXT]sha1sums-dewiki-20210901-pages-meta-history4.xml-p4390178p4470214.7z.txt2021-09-04 13:39 102
[TXT]sha1sums-dewiki-20210901-pages-meta-history4.xml-p4390178p4470214.bz2.txt2021-09-04 03:50 103
[TXT]sha1sums-dewiki-20210901-pages-meta-history4.xml-p4470215p4569613.7z.txt2021-09-04 13:40 102
[TXT]sha1sums-dewiki-20210901-pages-meta-history4.xml-p4470215p4569613.bz2.txt2021-09-04 03:51 103
[TXT]sha1sums-dewiki-20210901-pages-meta-history4.xml-p4569614p4690058.7z.txt2021-09-04 13:40 102
[TXT]sha1sums-dewiki-20210901-pages-meta-history4.xml-p4569614p4690058.bz2.txt2021-09-04 03:52 103
[TXT]sha1sums-dewiki-20210901-pages-meta-history4.xml-p4690059p4801653.7z.txt2021-09-04 13:40 102
[TXT]sha1sums-dewiki-20210901-pages-meta-history4.xml-p4690059p4801653.bz2.txt2021-09-04 03:54 103
[TXT]sha1sums-dewiki-20210901-pages-meta-history4.xml-p4801654p4928429.7z.txt2021-09-04 13:40 102
[TXT]sha1sums-dewiki-20210901-pages-meta-history4.xml-p4801654p4928429.bz2.txt2021-09-04 03:55 103
[TXT]sha1sums-dewiki-20210901-pages-meta-history4.xml-p4928430p5022316.7z.txt2021-09-04 13:40 102
[TXT]sha1sums-dewiki-20210901-pages-meta-history4.xml-p4928430p5022316.bz2.txt2021-09-04 03:57 103
[TXT]sha1sums-dewiki-20210901-pages-meta-history4.xml-p5022317p5129930.7z.txt2021-09-04 13:40 102
[TXT]sha1sums-dewiki-20210901-pages-meta-history4.xml-p5022317p5129930.bz2.txt2021-09-04 03:58 103
[TXT]sha1sums-dewiki-20210901-pages-meta-history4.xml-p5129931p5262735.7z.txt2021-09-04 13:41 102
[TXT]sha1sums-dewiki-20210901-pages-meta-history4.xml-p5129931p5262735.bz2.txt2021-09-04 03:59 103
[TXT]sha1sums-dewiki-20210901-pages-meta-history4.xml-p5262736p5364556.7z.txt2021-09-04 13:41 102
[TXT]sha1sums-dewiki-20210901-pages-meta-history4.xml-p5262736p5364556.bz2.txt2021-09-04 04:00 103
[TXT]sha1sums-dewiki-20210901-pages-meta-history4.xml-p5364557p5478536.7z.txt2021-09-04 13:41 102
[TXT]sha1sums-dewiki-20210901-pages-meta-history4.xml-p5364557p5478536.bz2.txt2021-09-04 04:02 103
[TXT]sha1sums-dewiki-20210901-pages-meta-history4.xml-p5478537p5594612.7z.txt2021-09-04 13:41 102
[TXT]sha1sums-dewiki-20210901-pages-meta-history4.xml-p5478537p5594612.bz2.txt2021-09-04 04:03 103
[TXT]sha1sums-dewiki-20210901-pages-meta-history4.xml-p5594613p5719474.7z.txt2021-09-04 13:41 102
[TXT]sha1sums-dewiki-20210901-pages-meta-history4.xml-p5594613p5719474.bz2.txt2021-09-04 04:04 103
[TXT]sha1sums-dewiki-20210901-pages-meta-history4.xml-p5719475p5856030.7z.txt2021-09-04 13:41 102
[TXT]sha1sums-dewiki-20210901-pages-meta-history4.xml-p5719475p5856030.bz2.txt2021-09-04 04:06 103
[TXT]sha1sums-dewiki-20210901-pages-meta-history4.xml-p5856031p5958551.7z.txt2021-09-04 13:42 102
[TXT]sha1sums-dewiki-20210901-pages-meta-history4.xml-p5856031p5958551.bz2.txt2021-09-04 04:07 103
[TXT]sha1sums-dewiki-20210901-pages-meta-history4.xml-p5958552p6082222.7z.txt2021-09-04 13:42 102
[TXT]sha1sums-dewiki-20210901-pages-meta-history4.xml-p5958552p6082222.bz2.txt2021-09-04 04:09 103
[TXT]sha1sums-dewiki-20210901-pages-meta-history4.xml-p6082223p6115464.7z.txt2021-09-04 13:42 102
[TXT]sha1sums-dewiki-20210901-pages-meta-history4.xml-p6082223p6115464.bz2.txt2021-09-04 04:09 103
[TXT]sha1sums-dewiki-20210901-pages-meta-history5.xml-p6115465p6242483.7z.txt2021-09-04 13:42 102
[TXT]sha1sums-dewiki-20210901-pages-meta-history5.xml-p6115465p6242483.bz2.txt2021-09-04 04:10 103
[TXT]sha1sums-dewiki-20210901-pages-meta-history5.xml-p6242484p6334567.7z.txt2021-09-04 13:42 102
[TXT]sha1sums-dewiki-20210901-pages-meta-history5.xml-p6242484p6334567.bz2.txt2021-09-04 04:12 103
[TXT]sha1sums-dewiki-20210901-pages-meta-history5.xml-p6334568p6428998.7z.txt2021-09-04 13:42 102
[TXT]sha1sums-dewiki-20210901-pages-meta-history5.xml-p6334568p6428998.bz2.txt2021-09-04 04:13 103
[TXT]sha1sums-dewiki-20210901-pages-meta-history5.xml-p6428999p6522987.7z.txt2021-09-04 13:42 102
[TXT]sha1sums-dewiki-20210901-pages-meta-history5.xml-p6428999p6522987.bz2.txt2021-09-04 04:15 103
[TXT]sha1sums-dewiki-20210901-pages-meta-history5.xml-p6522988p6529934.7z.txt2021-09-04 13:43 102
[TXT]sha1sums-dewiki-20210901-pages-meta-history5.xml-p6522988p6529934.bz2.txt2021-09-04 04:17 103
[TXT]sha1sums-dewiki-20210901-pages-meta-history5.xml-p6529935p6612030.7z.txt2021-09-04 13:43 102
[TXT]sha1sums-dewiki-20210901-pages-meta-history5.xml-p6529935p6612030.bz2.txt2021-09-04 04:19 103
[TXT]sha1sums-dewiki-20210901-pages-meta-history5.xml-p6612031p6678847.7z.txt2021-09-04 13:43 102
[TXT]sha1sums-dewiki-20210901-pages-meta-history5.xml-p6612031p6678847.bz2.txt2021-09-04 04:23 103
[TXT]sha1sums-dewiki-20210901-pages-meta-history5.xml-p6678848p6746983.7z.txt2021-09-04 13:43 102
[TXT]sha1sums-dewiki-20210901-pages-meta-history5.xml-p6678848p6746983.bz2.txt2021-09-04 04:24 103
[TXT]sha1sums-dewiki-20210901-pages-meta-history5.xml-p6746984p6862381.7z.txt2021-09-04 13:43 102
[TXT]sha1sums-dewiki-20210901-pages-meta-history5.xml-p6746984p6862381.bz2.txt2021-09-04 04:26 103
[TXT]sha1sums-dewiki-20210901-pages-meta-history5.xml-p6862382p6974528.7z.txt2021-09-04 13:43 102
[TXT]sha1sums-dewiki-20210901-pages-meta-history5.xml-p6862382p6974528.bz2.txt2021-09-04 04:27 103
[TXT]sha1sums-dewiki-20210901-pages-meta-history5.xml-p6974529p7044664.7z.txt2021-09-04 13:43 102
[TXT]sha1sums-dewiki-20210901-pages-meta-history5.xml-p6974529p7044664.bz2.txt2021-09-04 04:28 103
[TXT]sha1sums-dewiki-20210901-pages-meta-history5.xml-p7044665p7076412.7z.txt2021-09-04 13:44 102
[TXT]sha1sums-dewiki-20210901-pages-meta-history5.xml-p7044665p7076412.bz2.txt2021-09-04 04:33 103
[TXT]sha1sums-dewiki-20210901-pages-meta-history5.xml-p7076413p7165977.7z.txt2021-09-04 13:44 102
[TXT]sha1sums-dewiki-20210901-pages-meta-history5.xml-p7076413p7165977.bz2.txt2021-09-04 04:34 103
[TXT]sha1sums-dewiki-20210901-pages-meta-history5.xml-p7165978p7378048.7z.txt2021-09-04 13:44 102
[TXT]sha1sums-dewiki-20210901-pages-meta-history5.xml-p7165978p7378048.bz2.txt2021-09-04 04:35 103
[TXT]sha1sums-dewiki-20210901-pages-meta-history5.xml-p7378049p7515519.7z.txt2021-09-04 13:44 102
[TXT]sha1sums-dewiki-20210901-pages-meta-history5.xml-p7378049p7515519.bz2.txt2021-09-04 04:36 103
[TXT]sha1sums-dewiki-20210901-pages-meta-history5.xml-p7515520p7640644.7z.txt2021-09-04 13:44 102
[TXT]sha1sums-dewiki-20210901-pages-meta-history5.xml-p7515520p7640644.bz2.txt2021-09-04 04:37 103
[TXT]sha1sums-dewiki-20210901-pages-meta-history5.xml-p7640645p7755757.7z.txt2021-09-04 13:45 102
[TXT]sha1sums-dewiki-20210901-pages-meta-history5.xml-p7640645p7755757.bz2.txt2021-09-04 04:38 103
[TXT]sha1sums-dewiki-20210901-pages-meta-history5.xml-p7755758p7887021.7z.txt2021-09-04 13:45 102
[TXT]sha1sums-dewiki-20210901-pages-meta-history5.xml-p7755758p7887021.bz2.txt2021-09-04 04:39 103
[TXT]sha1sums-dewiki-20210901-pages-meta-history5.xml-p7887022p8025060.7z.txt2021-09-04 13:45 102
[TXT]sha1sums-dewiki-20210901-pages-meta-history5.xml-p7887022p8025060.bz2.txt2021-09-04 04:40 103
[TXT]sha1sums-dewiki-20210901-pages-meta-history5.xml-p8025061p8135169.7z.txt2021-09-04 13:45 102
[TXT]sha1sums-dewiki-20210901-pages-meta-history5.xml-p8025061p8135169.bz2.txt2021-09-04 04:42 103
[TXT]sha1sums-dewiki-20210901-pages-meta-history5.xml-p8135170p8269241.7z.txt2021-09-04 13:45 102
[TXT]sha1sums-dewiki-20210901-pages-meta-history5.xml-p8135170p8269241.bz2.txt2021-09-04 04:43 103
[TXT]sha1sums-dewiki-20210901-pages-meta-history5.xml-p8269242p8401958.7z.txt2021-09-04 13:45 102
[TXT]sha1sums-dewiki-20210901-pages-meta-history5.xml-p8269242p8401958.bz2.txt2021-09-04 04:44 103
[TXT]sha1sums-dewiki-20210901-pages-meta-history5.xml-p8401959p8531911.7z.txt2021-09-04 13:46 102
[TXT]sha1sums-dewiki-20210901-pages-meta-history5.xml-p8401959p8531911.bz2.txt2021-09-04 04:45 103
[TXT]sha1sums-dewiki-20210901-pages-meta-history5.xml-p8531912p8736760.7z.txt2021-09-04 13:46 102
[TXT]sha1sums-dewiki-20210901-pages-meta-history5.xml-p8531912p8736760.bz2.txt2021-09-04 04:46 103
[TXT]sha1sums-dewiki-20210901-pages-meta-history5.xml-p8736761p8890899.7z.txt2021-09-04 13:46 102
[TXT]sha1sums-dewiki-20210901-pages-meta-history5.xml-p8736761p8890899.bz2.txt2021-09-04 04:47 103
[TXT]sha1sums-dewiki-20210901-pages-meta-history5.xml-p8890900p9013523.7z.txt2021-09-04 13:46 102
[TXT]sha1sums-dewiki-20210901-pages-meta-history5.xml-p8890900p9013523.bz2.txt2021-09-04 04:48 103
[TXT]sha1sums-dewiki-20210901-pages-meta-history5.xml-p9013524p9082351.7z.txt2021-09-04 13:46 102
[TXT]sha1sums-dewiki-20210901-pages-meta-history5.xml-p9013524p9082351.bz2.txt2021-09-04 04:54 103
[TXT]sha1sums-dewiki-20210901-pages-meta-history5.xml-p9082352p9197175.7z.txt2021-09-04 13:47 102
[TXT]sha1sums-dewiki-20210901-pages-meta-history5.xml-p9082352p9197175.bz2.txt2021-09-04 04:56 103
[TXT]sha1sums-dewiki-20210901-pages-meta-history5.xml-p9197176p9261244.7z.txt2021-09-04 13:47 102
[TXT]sha1sums-dewiki-20210901-pages-meta-history5.xml-p9197176p9261244.bz2.txt2021-09-04 04:57 103
[TXT]sha1sums-dewiki-20210901-pages-meta-history6.xml-p9261245p9461376.7z.txt2021-09-04 13:47 102
[TXT]sha1sums-dewiki-20210901-pages-meta-history6.xml-p9261245p9461376.bz2.txt2021-09-04 04:58 103
[TXT]sha1sums-dewiki-20210901-pages-meta-history6.xml-p9461377p9604470.7z.txt2021-09-04 13:47 102
[TXT]sha1sums-dewiki-20210901-pages-meta-history6.xml-p9461377p9604470.bz2.txt2021-09-04 04:59 103
[TXT]sha1sums-dewiki-20210901-pages-meta-history6.xml-p9604471p9665927.7z.txt2021-09-04 13:47 102
[TXT]sha1sums-dewiki-20210901-pages-meta-history6.xml-p9604471p9665927.bz2.txt2021-09-04 05:00 103
[TXT]sha1sums-dewiki-20210901-pages-meta-history6.xml-p9665928p9740706.7z.txt2021-09-04 13:47 102
[TXT]sha1sums-dewiki-20210901-pages-meta-history6.xml-p9665928p9740706.bz2.txt2021-09-04 05:02 103
[TXT]sha1sums-dewiki-20210901-pages-meta-history6.xml-p9740707p9759826.7z.txt2021-09-04 13:47 102
[TXT]sha1sums-dewiki-20210901-pages-meta-history6.xml-p9740707p9759826.bz2.txt2021-09-04 05:03 103
[TXT]sha1sums-dewiki-20210901-pages-meta-history6.xml-p9759827p9928540.7z.txt2021-09-04 13:48 102
[TXT]sha1sums-dewiki-20210901-pages-meta-history6.xml-p9759827p9928540.bz2.txt2021-09-04 05:04 103
[TXT]sha1sums-dewiki-20210901-pages-meta-history6.xml-p9928541p9973220.7z.txt2021-09-04 13:48 102
[TXT]sha1sums-dewiki-20210901-pages-meta-history6.xml-p9928541p9973220.bz2.txt2021-09-04 05:06 103
[TXT]sha1sums-dewiki-20210901-pages-meta-history6.xml-p9973221p10070615.7z.txt2021-09-04 13:48 103
[TXT]sha1sums-dewiki-20210901-pages-meta-history6.xml-p9973221p10070615.bz2.txt2021-09-04 05:07 104
[TXT]sha1sums-dewiki-20210901-pages-meta-history6.xml-p10070616p10240083.7z.txt2021-09-04 13:48 104
[TXT]sha1sums-dewiki-20210901-pages-meta-history6.xml-p10070616p10240083.bz2.txt2021-09-04 05:08 105
[TXT]sha1sums-dewiki-20210901-pages-meta-history6.xml-p10240084p10281910.7z.txt2021-09-04 13:48 104
[TXT]sha1sums-dewiki-20210901-pages-meta-history6.xml-p10240084p10281910.bz2.txt2021-09-04 05:09 105
[TXT]sha1sums-dewiki-20210901-pages-meta-history6.xml-p10281911p10453712.7z.txt2021-09-04 13:49 104
[TXT]sha1sums-dewiki-20210901-pages-meta-history6.xml-p10281911p10453712.bz2.txt2021-09-04 05:10 105
[TXT]sha1sums-dewiki-20210901-pages-meta-history6.xml-p10453713p10659473.7z.txt2021-09-04 13:49 104
[TXT]sha1sums-dewiki-20210901-pages-meta-history6.xml-p10453713p10659473.bz2.txt2021-09-04 05:11 105
[TXT]sha1sums-dewiki-20210901-pages-meta-history6.xml-p10659474p10822457.7z.txt2021-09-04 13:49 104
[TXT]sha1sums-dewiki-20210901-pages-meta-history6.xml-p10659474p10822457.bz2.txt2021-09-04 05:13 105
[TXT]sha1sums-dewiki-20210901-pages-meta-history6.xml-p10822458p11033599.7z.txt2021-09-04 13:49 104
[TXT]sha1sums-dewiki-20210901-pages-meta-history6.xml-p10822458p11033599.bz2.txt2021-09-04 05:13 105
[TXT]sha1sums-dewiki-20210901-pages-meta-history6.xml-p11033600p11178690.7z.txt2021-09-04 13:49 104
[TXT]sha1sums-dewiki-20210901-pages-meta-history6.xml-p11033600p11178690.bz2.txt2021-09-04 05:15 105
[TXT]sha1sums-dewiki-20210901-pages-meta-history6.xml-p11178691p11256191.7z.txt2021-09-04 13:49 104
[TXT]sha1sums-dewiki-20210901-pages-meta-history6.xml-p11178691p11256191.bz2.txt2021-09-04 05:17 105
[TXT]sha1sums-dewiki-20210901-pages-meta-history6.xml-p11256192p11467469.7z.txt2021-09-04 13:50 104
[TXT]sha1sums-dewiki-20210901-pages-meta-history6.xml-p11256192p11467469.bz2.txt2021-09-04 05:18 105
[TXT]sha1sums-dewiki-20210901-pages-meta-history6.xml-p11467470p11617026.7z.txt2021-09-04 13:50 104
[TXT]sha1sums-dewiki-20210901-pages-meta-history6.xml-p11467470p11617026.bz2.txt2021-09-04 05:20 105
[TXT]sha1sums-dewiki-20210901-pages-meta-history6.xml-p11617027p11835767.7z.txt2021-09-04 13:50 104
[TXT]sha1sums-dewiki-20210901-pages-meta-history6.xml-p11617027p11835767.bz2.txt2021-09-04 05:21 105
[TXT]sha1sums-dewiki-20210901-pages-meta-history6.xml-p11835768p11906022.7z.txt2021-09-04 13:50 104
[TXT]sha1sums-dewiki-20210901-pages-meta-history6.xml-p11835768p11906022.bz2.txt2021-09-04 05:22 105
[TXT]sha1sums-dewiki-20210901-protected_titles.sql.gz.txt2021-09-01 18:51 82
[TXT]sha1sums-dewiki-20210901-redirect.sql.gz.txt2021-09-01 18:52 74
[TXT]sha1sums-dewiki-20210901-site_stats.sql.gz.txt2021-09-01 18:33 76
[TXT]sha1sums-dewiki-20210901-siteinfo-namespaces.json.gz.txt2021-09-02 21:14 86
[TXT]sha1sums-dewiki-20210901-sites.sql.gz.txt2021-09-01 20:10 71
[TXT]sha1sums-dewiki-20210901-stub-articles.xml.gz.txt2021-09-01 18:31 79
[TXT]sha1sums-dewiki-20210901-stub-articles1.xml.gz.txt2021-09-01 18:17 80
[TXT]sha1sums-dewiki-20210901-stub-articles2.xml.gz.txt2021-09-01 18:17 80
[TXT]sha1sums-dewiki-20210901-stub-articles3.xml.gz.txt2021-09-01 18:17 80
[TXT]sha1sums-dewiki-20210901-stub-articles4.xml.gz.txt2021-09-01 18:17 80
[TXT]sha1sums-dewiki-20210901-stub-articles5.xml.gz.txt2021-09-01 18:17 80
[TXT]sha1sums-dewiki-20210901-stub-articles6.xml.gz.txt2021-09-01 18:17 80
[TXT]sha1sums-dewiki-20210901-stub-meta-current.xml.gz.txt2021-09-01 18:31 83
[TXT]sha1sums-dewiki-20210901-stub-meta-current1.xml.gz.txt2021-09-01 18:16 84
[TXT]sha1sums-dewiki-20210901-stub-meta-current2.xml.gz.txt2021-09-01 18:16 84
[TXT]sha1sums-dewiki-20210901-stub-meta-current3.xml.gz.txt2021-09-01 18:16 84
[TXT]sha1sums-dewiki-20210901-stub-meta-current4.xml.gz.txt2021-09-01 18:16 84
[TXT]sha1sums-dewiki-20210901-stub-meta-current5.xml.gz.txt2021-09-01 18:16 84
[TXT]sha1sums-dewiki-20210901-stub-meta-current6.xml.gz.txt2021-09-01 18:16 84
[TXT]sha1sums-dewiki-20210901-stub-meta-history.xml.gz.txt2021-09-01 18:30 83
[TXT]sha1sums-dewiki-20210901-stub-meta-history1.xml.gz.txt2021-09-01 18:10 84
[TXT]sha1sums-dewiki-20210901-stub-meta-history2.xml.gz.txt2021-09-01 18:12 84
[TXT]sha1sums-dewiki-20210901-stub-meta-history3.xml.gz.txt2021-09-01 18:13 84
[TXT]sha1sums-dewiki-20210901-stub-meta-history4.xml.gz.txt2021-09-01 18:14 84
[TXT]sha1sums-dewiki-20210901-stub-meta-history5.xml.gz.txt2021-09-01 18:15 84
[TXT]sha1sums-dewiki-20210901-stub-meta-history6.xml.gz.txt2021-09-01 18:16 84
[TXT]sha1sums-dewiki-20210901-templatelinks.sql.gz.txt2021-09-01 18:43 79
[TXT]sha1sums-dewiki-20210901-user_former_groups.sql.gz.txt2021-09-01 18:48 84
[TXT]sha1sums-dewiki-20210901-user_groups.sql.gz.txt2021-09-01 18:48 77
[TXT]sha1sums-dewiki-20210901-wbc_entity_usage.sql.gz.txt2021-09-01 20:11 82
[HTM]status.html2021-09-04 13:51 107
[   ]tableinfo.json2021-09-01 10:05 1.7K

Apache/2.4.46 (Unix) Server at ftp.acc.umu.se Port 443